Wetterdaten: Donnerstag, 16.06.2022
Datum Zeit Temp. Aussen Temp. o. S. Temp +5cm Feuchte Auss Luftdruck Regen Sonnenschein Regendauer Solar Windben Empfang
16.06.2022 00:00 20,2 C 18,9 C 15,6 C 65 % 1018,2 hPa 0,0 l/m 0 min 0 min 0 W/m 9,7 km/h (2 Bft) 100,00 %
16.06.2022 00:02 20,1 C 18,9 C 15,6 C 65 % 1018,2 hPa 0,0 l/m 0 min 0 min 0 W/m 9,7 km/h (2 Bft) 97,83 %
16.06.2022 00:04 20,1 C 18,9 C 15,6 C 66 % 1018,3 hPa 0,0 l/m 0 min 0 min 0 W/m 6,4 km/h (2 Bft) 100,00 %
16.06.2022 00:07 19,9 C 18,9 C 15,6 C 66 % 1018,2 hPa 0,0 l/m 0 min 0 min 0 W/m 9,7 km/h (2 Bft) 98,59 %
16.06.2022 00:08 19,9 C 18,9 C 15,6 C 65 % 1018,2 hPa 0,0 l/m 0 min 0 min 0 W/m 12,9 km/h (3 Bft) 100,00 %
16.06.2022 00:10 19,9 C 18,9 C 15,6 C 66 % 1018,2 hPa 0,0 l/m 0 min 0 min 0 W/m 12,9 km/h (3 Bft) 100,00 %
16.06.2022 00:12 19,8 C 18,9 C 15,6 C 66 % 1018,2 hPa 0,0 l/m 0 min 0 min 0 W/m 6,4 km/h (2 Bft) 100,00 %
16.06.2022 00:14 19,8 C 18,9 C 15,6 C 66 % 1018,3 hPa 0,0 l/m 0 min 0 min 0 W/m 9,7 km/h (2 Bft) 100,00 %
16.06.2022 00:16 19,7 C 18,9 C 15,0 C 67 % 1018,2 hPa 0,0 l/m 0 min 0 min 0 W/m 12,9 km/h (3 Bft) 100,00 %
16.06.2022 00:18 19,7 C 18,9 C 15,0 C 66 % 1018,3 hPa 0,0 l/m 0 min 0 min 0 W/m 12,9 km/h (3 Bft) 100,00 %
16.06.2022 00:20 19,7 C 18,9 C 15,0 C 67 % 1018,3 hPa 0,0 l/m 0 min 0 min 0 W/m 9,7 km/h (2 Bft) 100,00 %
16.06.2022 00:22 19,6 C 18,3 C 15,0 C 67 % 1018,4 hPa 0,0 l/m 0 min 0 min 0 W/m 9,7 km/h (2 Bft) 95,74 %
16.06.2022 00:24 19,6 C 18,3 C 15,0 C 67 % 1018,4 hPa 0,0 l/m 0 min 0 min 0 W/m 12,9 km/h (3 Bft) 97,87 %
16.06.2022 00:26 19,5 C 18,3 C 15,0 C 67 % 1018,3 hPa 0,0 l/m 0 min 0 min 0 W/m 16,1 km/h (3 Bft) 97,87 %
16.06.2022 00:30 19,4 C 18,3 C 15,0 C 68 % 1018,3 hPa 0,0 l/m 0 min 0 min 0 W/m 16,1 km/h (3 Bft) 100,00 %
16.06.2022 00:35 19,3 C 18,3 C 15,0 C 68 % 1018,3 hPa 0,0 l/m 0 min 0 min 0 W/m 12,9 km/h (3 Bft) 99,12 %
16.06.2022 00:40 19,2 C 18,3 C 15,0 C 69 % 1018,2 hPa 0,0 l/m 0 min 0 min 0 W/m 9,7 km/h (2 Bft) 98,25 %
16.06.2022 00:45 19,1 C 18,3 C 14,4 C 69 % 1018,3 hPa 0,0 l/m 0 min 0 min 0 W/m 12,9 km/h (3 Bft) 98,25 %
16.06.2022 00:50 18,9 C 18,3 C 14,4 C 70 % 1018,4 hPa 0,0 l/m 0 min 0 min 0 W/m 12,9 km/h (3 Bft) 97,37 %
16.06.2022 00:55 18,9 C 17,8 C 14,4 C 70 % 1018,4 hPa 0,0 l/m 0 min 0 min 0 W/m 9,7 km/h (2 Bft) 98,25 %
16.06.2022 01:00 18,9 C 18,3 C 14,4 C 70 % 1018,3 hPa 0,0 l/m 0 min 0 min 0 W/m 12,9 km/h (3 Bft) 97,37 %
16.06.2022 01:05 18,9 C 18,3 C 14,4 C 70 % 1018,2 hPa 0,0 l/m 0 min 0 min 0 W/m 9,7 km/h (2 Bft) 96,49 %
16.06.2022 01:10 18,8 C 17,8 C 14,4 C 70 % 1018,1 hPa 0,0 l/m 0 min 0 min 0 W/m 9,7 km/h (2 Bft) 100,00 %
16.06.2022 01:15 18,8 C 17,8 C 14,4 C 71 % 1018,2 hPa 0,0 l/m 0 min 0 min 0 W/m 12,9 km/h (3 Bft) 97,37 %
16.06.2022 01:20 18,7 C 17,8 C 14,4 C 71 % 1018,1 hPa 0,0 l/m 0 min 0 min 0 W/m 6,4 km/h (2 Bft) 100,00 %
16.06.2022 01:25 18,6 C 17,8 C 14,4 C 71 % 1018,1 hPa 0,0 l/m 0 min 0 min 0 W/m 9,7 km/h (2 Bft) 100,00 %
16.06.2022 01:30 18,6 C 17,8 C 14,4 C 71 % 1018,1 hPa 0,0 l/m 0 min 0 min 0 W/m 19,3 km/h (3 Bft) 99,12 %
16.06.2022 01:35 18,5 C 17,8 C 14,4 C 71 % 1018,2 hPa 0,0 l/m 0 min 0 min 0 W/m 19,3 km/h (3 Bft) 100,00 %
16.06.2022 01:40 18,4 C 17,8 C 14,4 C 71 % 1018,2 hPa 0,0 l/m 0 min 0 min 0 W/m 9,7 km/h (2 Bft) 100,00 %
16.06.2022 01:45 18,4 C 17,8 C 14,4 C 71 % 1018,3 hPa 0,0 l/m 0 min 0 min 0 W/m 12,9 km/h (3 Bft) 100,00 %
16.06.2022 01:50 18,4 C 17,8 C 14,4 C 71 % 1018,4 hPa 0,0 l/m 0 min 0 min 0 W/m 9,7 km/h (2 Bft) 100,00 %
16.06.2022 01:55 18,4 C 17,8 C 14,4 C 71 % 1018,4 hPa 0,0 l/m 0 min 0 min 0 W/m 6,4 km/h (2 Bft) 100,00 %
16.06.2022 02:00 18,4 C 17,8 C 14,4 C 71 % 1018,4 hPa 0,0 l/m 0 min 0 min 0 W/m 12,9 km/h (3 Bft) 99,12 %
16.06.2022 02:05 18,3 C 17,2 C 13,9 C 71 % 1018,3 hPa 0,0 l/m 0 min 0 min 0 W/m 12,9 km/h (3 Bft) 100,00 %
16.06.2022 02:10 18,3 C 17,2 C 13,9 C 71 % 1018,3 hPa 0,0 l/m 0 min 0 min 0 W/m 6,4 km/h (2 Bft) 100,00 %
16.06.2022 02:15 18,2 C 17,2 C 13,9 C 71 % 1018,3 hPa 0,0 l/m 0 min 0 min 0 W/m 6,4 km/h (2 Bft) 100,00 %
16.06.2022 02:20 18,1 C 17,2 C 13,9 C 71 % 1018,2 hPa 0,0 l/m 0 min 0 min 0 W/m 9,7 km/h (2 Bft) 100,00 %
16.06.2022 02:25 18,1 C 17,2 C 13,9 C 72 % 1018,3 hPa 0,0 l/m 0 min 0 min 0 W/m 6,4 km/h (2 Bft) 100,00 %
16.06.2022 02:30 17,9 C 17,2 C 13,9 C 72 % 1018,4 hPa 0,0 l/m 0 min 0 min 0 W/m 6,4 km/h (2 Bft) 100,00 %
16.06.2022 02:35 17,8 C 17,2 C 13,9 C 71 % 1018,4 hPa 0,0 l/m 0 min 0 min 0 W/m 12,9 km/h (3 Bft) 100,00 %
16.06.2022 02:40 17,8 C 17,2 C 13,3 C 71 % 1018,4 hPa 0,0 l/m 0 min 0 min 0 W/m 12,9 km/h (3 Bft) 100,00 %
16.06.2022 02:46 17,7 C 16,7 C 13,3 C 71 % 1018,4 hPa 0,0 l/m 0 min 0 min 0 W/m 6,4 km/h (2 Bft) 100,00 %
16.06.2022 02:48 17,7 C 16,7 C 13,3 C 71 % 1018,3 hPa 0,0 l/m 0 min 0 min 0 W/m 9,7 km/h (2 Bft) 97,22 %
16.06.2022 02:50 17,7 C 16,7 C 13,3 C 70 % 1018,3 hPa 0,0 l/m 0 min 0 min 0 W/m 6,4 km/h (2 Bft) 97,83 %
16.06.2022 02:52 17,6 C 16,7 C 13,3 C 70 % 1018,4 hPa 0,0 l/m 0 min 0 min 0 W/m 9,7 km/h (2 Bft) 97,87 %
16.06.2022 02:54 17,6 C 16,7 C 13,3 C 70 % 1018,4 hPa 0,0 l/m 0 min 0 min 0 W/m 6,4 km/h (2 Bft) 97,87 %
16.06.2022 02:56 17,6 C 16,7 C 13,3 C 70 % 1018,4 hPa 0,0 l/m 0 min 0 min 0 W/m 12,9 km/h (3 Bft) 97,87 %
16.06.2022 02:58 17,6 C 16,7 C 13,3 C 70 % 1018,4 hPa 0,0 l/m 0 min 0 min 0 W/m 9,7 km/h (2 Bft) 97,87 %
16.06.2022 03:00 17,6 C 16,7 C 13,3 C 69 % 1018,4 hPa 0,0 l/m 0 min 0 min 0 W/m 12,9 km/h (3 Bft) 97,87 %
16.06.2022 03:02 17,6 C 16,7 C 13,3 C 69 % 1018,3 hPa 0,0 l/m 0 min 0 min 0 W/m 12,9 km/h (3 Bft) 97,83 %
16.06.2022 03:04 17,6 C 16,7 C 13,3 C 70 % 1018,3 hPa 0,0 l/m 0 min 0 min 0 W/m 6,4 km/h (2 Bft) 100,00 %
16.06.2022 03:06 17,5 C 16,7 C 13,3 C 70 % 1018,3 hPa 0,0 l/m 0 min 0 min 0 W/m 6,4 km/h (2 Bft) 100,00 %
16.06.2022 03:08 17,5 C 16,7 C 13,3 C 70 % 1018,3 hPa 0,0 l/m 0 min 0 min 0 W/m 6,4 km/h (2 Bft) 100,00 %
16.06.2022 03:10 17,4 C 16,7 C 13,3 C 70 % 1018,3 hPa 0,0 l/m 0 min 0 min 0 W/m 12,9 km/h (3 Bft) 97,87 %
16.06.2022 03:12 17,4 C 16,7 C 13,3 C 69 % 1018,3 hPa 0,0 l/m 0 min 0 min 0 W/m 6,4 km/h (2 Bft) 100,00 %
16.06.2022 03:14 17,4 C 16,7 C 13,3 C 69 % 1018,3 hPa 0,0 l/m 0 min 0 min 0 W/m 9,7 km/h (2 Bft) 100,00 %
16.06.2022 03:16 17,3 C 16,7 C 12,8 C 70 % 1018,2 hPa 0,0 l/m 0 min 0 min 0 W/m 9,7 km/h (2 Bft) 100,00 %
16.06.2022 03:18 17,3 C 16,7 C 12,8 C 70 % 1018,3 hPa 0,0 l/m 0 min 0 min 0 W/m 9,7 km/h (2 Bft) 100,00 %
16.06.2022 03:20 17,3 C 16,7 C 12,8 C 70 % 1018,3 hPa 0,0 l/m 0 min 0 min 0 W/m 12,9 km/h (3 Bft) 95,74 %
16.06.2022 03:22 17,2 C 16,1 C 12,8 C 69 % 1018,3 hPa 0,0 l/m 0 min 0 min 0 W/m 12,9 km/h (3 Bft) 97,87 %
16.06.2022 03:24 17,2 C 16,1 C 12,8 C 70 % 1018,3 hPa 0,0 l/m 0 min 0 min 0 W/m 12,9 km/h (3 Bft) 97,87 %
16.06.2022 03:26 17,2 C 16,1 C 12,8 C 70 % 1018,4 hPa 0,0 l/m 0 min 0 min 0 W/m 9,7 km/h (2 Bft) 97,83 %
16.06.2022 03:28 17,1 C 16,1 C 12,8 C 70 % 1018,4 hPa 0,0 l/m 0 min 0 min 0 W/m 6,4 km/h (2 Bft) 97,87 %
16.06.2022 03:30 17,1 C 16,1 C 12,8 C 70 % 1018,5 hPa 0,0 l/m 0 min 0 min 0 W/m 6,4 km/h (2 Bft) 97,87 %
16.06.2022 03:32 17,1 C 16,1 C 12,8 C 70 % 1018,5 hPa 0,0 l/m 0 min 0 min 0 W/m 3,2 km/h (1 Bft) 97,87 %
16.06.2022 03:34 17,1 C 16,1 C 12,8 C 71 % 1018,5 hPa 0,0 l/m 0 min 0 min 0 W/m 6,4 km/h (2 Bft) 97,87 %
16.06.2022 03:36 17,0 C 16,1 C 12,8 C 71 % 1018,5 hPa 0,0 l/m 0 min 0 min 0 W/m 6,4 km/h (2 Bft) 94,23 %
16.06.2022 03:38 16,9 C 16,1 C 12,8 C 70 % 1018,6 hPa 0,0 l/m 0 min 0 min 0 W/m 6,4 km/h (2 Bft) 97,56 %
16.06.2022 03:40 16,9 C 16,1 C 12,8 C 70 % 1018,6 hPa 0,0 l/m 0 min 0 min 0 W/m 6,4 km/h (2 Bft) 97,87 %
16.06.2022 03:42 16,9 C 16,1 C 12,8 C 71 % 1018,6 hPa 0,0 l/m 0 min 0 min 0 W/m 6,4 km/h (2 Bft) 97,87 %
16.06.2022 03:44 16,9 C 16,1 C 12,8 C 70 % 1018,7 hPa 0,0 l/m 0 min 0 min 0 W/m 12,9 km/h (3 Bft) 97,87 %
16.06.2022 03:46 16,8 C 16,1 C 12,8 C 71 % 1018,7 hPa 0,0 l/m 0 min 0 min 0 W/m 9,7 km/h (2 Bft) 97,87 %
16.06.2022 03:48 16,8 C 16,1 C 12,8 C 71 % 1018,7 hPa 0,0 l/m 0 min 0 min 0 W/m 6,4 km/h (2 Bft) 97,87 %
16.06.2022 03:50 16,8 C 16,1 C 12,8 C 70 % 1018,6 hPa 0,0 l/m 0 min 0 min 0 W/m 9,7 km/h (2 Bft) 97,83 %
16.06.2022 03:52 16,8 C 16,1 C 12,8 C 71 % 1018,6 hPa 0,0 l/m 0 min 0 min 0 W/m 6,4 km/h (2 Bft) 95,74 %
16.06.2022 03:54 16,8 C 16,1 C 12,8 C 71 % 1018,6 hPa 0,0 l/m 0 min 0 min 0 W/m 9,7 km/h (2 Bft) 95,74 %
16.06.2022 03:56 16,7 C 16,1 C 12,8 C 71 % 1018,7 hPa 0,0 l/m 0 min 0 min 0 W/m 6,4 km/h (2 Bft) 95,74 %
16.06.2022 03:58 16,7 C 16,1 C 12,8 C 71 % 1018,7 hPa 0,0 l/m 0 min 0 min 0 W/m 6,4 km/h (2 Bft) 97,87 %
16.06.2022 04:00 16,7 C 16,1 C 12,8 C 71 % 1018,7 hPa 0,0 l/m 0 min 0 min 0 W/m 6,4 km/h (2 Bft) 97,83 %
16.06.2022 04:02 16,7 C 16,1 C 12,8 C 71 % 1018,6 hPa 0,0 l/m 0 min 0 min 0 W/m 3,2 km/h (1 Bft) 95,74 %
16.06.2022 04:04 16,7 C 16,1 C 12,8 C 71 % 1018,7 hPa 0,0 l/m 0 min 0 min 0 W/m 3,2 km/h (1 Bft) 93,62 %
16.06.2022 04:06 16,6 C 15,6 C 12,8 C 71 % 1018,7 hPa 0,0 l/m 0 min 0 min 0 W/m 9,7 km/h (2 Bft) 92,45 %
16.06.2022 04:08 16,6 C 15,6 C 12,8 C 71 % 1018,7 hPa 0,0 l/m 0 min 0 min 0 W/m 3,2 km/h (1 Bft) 95,12 %
16.06.2022 04:10 16,6 C 15,6 C 12,2 C 71 % 1018,7 hPa 0,0 l/m 0 min 0 min 0 W/m 6,4 km/h (2 Bft) 93,62 %
16.06.2022 04:12 16,6 C 15,6 C 12,2 C 71 % 1018,8 hPa 0,0 l/m 0 min 0 min 0 W/m 6,4 km/h (2 Bft) 97,83 %
16.06.2022 04:14 16,6 C 15,6 C 12,2 C 71 % 1018,9 hPa 0,0 l/m 0 min 0 min 0 W/m 3,2 km/h (1 Bft) 97,87 %
16.06.2022 04:16 16,6 C 15,6 C 12,2 C 71 % 1018,9 hPa 0,0 l/m 0 min 0 min 0 W/m 6,4 km/h (2 Bft) 97,87 %
16.06.2022 04:18 16,5 C 15,6 C 12,2 C 71 % 1018,9 hPa 0,0 l/m 0 min 0 min 0 W/m 6,4 km/h (2 Bft) 93,62 %
16.06.2022 04:20 16,5 C 15,6 C 12,2 C 70 % 1018,9 hPa 0,0 l/m 0 min 0 min 0 W/m 3,2 km/h (1 Bft) 95,74 %
16.06.2022 04:22 16,4 C 15,6 C 12,2 C 71 % 1018,9 hPa 0,0 l/m 0 min 0 min 0 W/m 3,2 km/h (1 Bft) 97,87 %
16.06.2022 04:24 16,4 C 15,6 C 12,2 C 71 % 1018,8 hPa 0,0 l/m 0 min 0 min 0 W/m 6,4 km/h (2 Bft) 95,65 %
16.06.2022 04:26 16,4 C 15,6 C 12,2 C 71 % 1018,8 hPa 0,0 l/m 0 min 0 min 0 W/m 6,4 km/h (2 Bft) 95,74 %
16.06.2022 04:28 16,4 C 15,6 C 12,2 C 70 % 1018,9 hPa 0,0 l/m 0 min 0 min 0 W/m 6,4 km/h (2 Bft) 95,74 %
16.06.2022 04:30 16,4 C 15,6 C 12,2 C 70 % 1018,9 hPa 0,0 l/m 0 min 0 min 0 W/m 3,2 km/h (1 Bft) 95,74 %
16.06.2022 04:32 16,3 C 15,6 C 12,2 C 70 % 1018,8 hPa 0,0 l/m 0 min 0 min 0 W/m 6,4 km/h (2 Bft) 93,62 %
16.06.2022 04:34 16,3 C 15,6 C 12,2 C 70 % 1018,9 hPa 0,0 l/m 0 min 0 min 0 W/m 6,4 km/h (2 Bft) 95,74 %
16.06.2022 04:36 16,3 C 15,6 C 12,2 C 70 % 1019,0 hPa 0,0 l/m 0 min 0 min 0 W/m 6,4 km/h (2 Bft) 96,15 %
16.06.2022 04:38 16,2 C 15,6 C 12,2 C 70 % 1018,9 hPa 0,0 l/m 0 min 0 min 0 W/m 6,4 km/h (2 Bft) 95,12 %
16.06.2022 04:40 16,2 C 15,0 C 12,2 C 70 % 1018,9 hPa 0,0 l/m 0 min 0 min 0 W/m 9,7 km/h (2 Bft) 95,74 %
16.06.2022 04:42 16,2 C 15,0 C 11,7 C 70 % 1018,8 hPa 0,0 l/m 0 min 0 min 0 W/m 6,4 km/h (2 Bft) 93,62 %
16.06.2022 04:44 16,1 C 15,0 C 11,7 C 71 % 1018,8 hPa 0,0 l/m 0 min 0 min 0 W/m 6,4 km/h (2 Bft) 93,62 %
16.06.2022 04:46 16,1 C 15,0 C 11,7 C 71 % 1018,8 hPa 0,0 l/m 0 min 0 min 0 W/m 6,4 km/h (2 Bft) 95,74 %
16.06.2022 04:48 16,0 C 15,0 C 11,7 C 71 % 1018,8 hPa 0,0 l/m 0 min 0 min 0 W/m 3,2 km/h (1 Bft) 97,83 %
16.06.2022 04:50 15,9 C 15,0 C 11,7 C 71 % 1018,8 hPa 0,0 l/m 0 min 0 min 0 W/m 3,2 km/h (1 Bft) 97,87 %
16.06.2022 04:52 15,9 C 15,0 C 11,7 C 71 % 1018,8 hPa 0,0 l/m 0 min 0 min 0 W/m 6,4 km/h (2 Bft) 100,00 %
16.06.2022 04:54 15,8 C 15,0 C 11,1 C 71 % 1018,8 hPa 0,0 l/m 0 min 0 min 0 W/m 6,4 km/h (2 Bft) 100,00 %
16.06.2022 04:56 15,8 C 14,4 C 11,1 C 71 % 1018,8 hPa 0,0 l/m 0 min 0 min 0 W/m 3,2 km/h (1 Bft) 100,00 %
16.06.2022 04:58 15,8 C 14,4 C 11,1 C 71 % 1018,7 hPa 0,0 l/m 0 min 0 min 0 W/m 6,4 km/h (2 Bft) 100,00 %
16.06.2022 05:00 15,7 C 14,4 C 11,1 C 71 % 1018,8 hPa 0,0 l/m 0 min 0 min 0 W/m 3,2 km/h (1 Bft) 100,00 %
16.06.2022 05:02 15,7 C 14,4 C 11,1 C 71 % 1018,8 hPa 0,0 l/m 0 min 0 min 0 W/m 3,2 km/h (1 Bft) 100,00 %
16.06.2022 05:04 15,6 C 14,4 C 11,1 C 71 % 1018,9 hPa 0,0 l/m 0 min 0 min 0 W/m 3,2 km/h (1 Bft) 100,00 %
16.06.2022 05:06 15,6 C 14,4 C 11,1 C 72 % 1018,9 hPa 0,0 l/m 0 min 0 min 0 W/m 6,4 km/h (2 Bft) 100,00 %
16.06.2022 05:08 15,6 C 14,4 C 11,1 C 71 % 1018,9 hPa 0,0 l/m 0 min 0 min 0 W/m 12,9 km/h (3 Bft) 100,00 %
16.06.2022 05:10 15,5 C 14,4 C 11,1 C 71 % 1018,9 hPa 0,0 l/m 0 min 0 min 0 W/m 9,7 km/h (2 Bft) 100,00 %
16.06.2022 05:12 15,4 C 14,4 C 11,1 C 71 % 1018,9 hPa 0,0 l/m 0 min 0 min 0 W/m 3,2 km/h (1 Bft) 100,00 %
16.06.2022 05:14 15,4 C 14,4 C 11,1 C 72 % 1018,9 hPa 0,0 l/m 0 min 0 min 0 W/m 3,2 km/h (1 Bft) 97,87 %
16.06.2022 05:16 15,4 C 14,4 C 11,1 C 72 % 1019,0 hPa 0,0 l/m 0 min 0 min 0 W/m 3,2 km/h (1 Bft) 97,87 %
16.06.2022 05:18 15,4 C 14,4 C 11,1 C 72 % 1019,0 hPa 0,0 l/m 0 min 0 min 0 W/m 3,2 km/h (1 Bft) 100,00 %
16.06.2022 05:20 15,4 C 14,4 C 11,1 C 72 % 1019,1 hPa 0,0 l/m 0 min 0 min 0 W/m 3,2 km/h (1 Bft) 100,00 %
16.06.2022 05:22 15,3 C 14,4 C 11,1 C 72 % 1019,2 hPa 0,0 l/m 0 min 0 min 0 W/m 3,2 km/h (1 Bft) 97,87 %
16.06.2022 05:24 15,3 C 14,4 C 11,1 C 72 % 1019,2 hPa 0,0 l/m 0 min 0 min 1 W/m 3,2 km/h (1 Bft) 97,83 %
16.06.2022 05:26 15,3 C 14,4 C 11,1 C 73 % 1019,3 hPa 0,0 l/m 0 min 0 min 5 W/m 3,2 km/h (1 Bft) 100,00 %
16.06.2022 05:28 15,3 C 14,4 C 11,1 C 73 % 1019,3 hPa 0,0 l/m 0 min 0 min 5 W/m 3,2 km/h (1 Bft) 100,00 %
16.06.2022 05:30 15,3 C 14,4 C 11,1 C 73 % 1019,3 hPa 0,0 l/m 0 min 0 min 5 W/m 0,0 km/h (0 Bft) 100,00 %
16.06.2022 05:32 15,3 C 14,4 C 11,1 C 73 % 1019,4 hPa 0,0 l/m 0 min 0 min 7 W/m 3,2 km/h (1 Bft) 100,00 %
16.06.2022 05:34 15,3 C 14,4 C 11,1 C 73 % 1019,4 hPa 0,0 l/m 0 min 0 min 7 W/m 3,2 km/h (1 Bft) 100,00 %
16.06.2022 05:36 15,3 C 14,4 C 11,1 C 73 % 1019,4 hPa 0,0 l/m 0 min 0 min 7 W/m 3,2 km/h (1 Bft) 100,00 %
16.06.2022 05:38 15,3 C 14,4 C 11,1 C 72 % 1019,3 hPa 0,0 l/m 0 min 0 min 9 W/m 6,4 km/h (2 Bft) 100,00 %
16.06.2022 05:40 15,3 C 14,4 C 11,1 C 73 % 1019,4 hPa 0,0 l/m 0 min 0 min 9 W/m 3,2 km/h (1 Bft) 100,00 %
16.06.2022 05:42 15,2 C 14,4 C 11,1 C 73 % 1019,4 hPa 0,0 l/m 0 min 0 min 9 W/m 3,2 km/h (1 Bft) 100,00 %
16.06.2022 05:44 15,2 C 14,4 C 11,1 C 73 % 1019,3 hPa 0,0 l/m 0 min 0 min 11 W/m 0,0 km/h (0 Bft) 100,00 %
16.06.2022 05:46 15,2 C 14,4 C 11,1 C 73 % 1019,5 hPa 0,0 l/m 0 min 0 min 11 W/m 3,2 km/h (1 Bft) 100,00 %
16.06.2022 05:48 15,2 C 14,4 C 11,1 C 73 % 1019,5 hPa 0,0 l/m 0 min 0 min 12 W/m 3,2 km/h (1 Bft) 100,00 %
16.06.2022 05:50 15,2 C 14,4 C 11,1 C 73 % 1019,5 hPa 0,0 l/m 0 min 0 min 12 W/m 0,0 km/h (0 Bft) 100,00 %
16.06.2022 05:52 15,2 C 14,4 C 11,1 C 73 % 1019,5 hPa 0,0 l/m 0 min 0 min 14 W/m 0,0 km/h (0 Bft) 97,87 %
16.06.2022 05:54 15,2 C 14,4 C 11,1 C 73 % 1019,6 hPa 0,0 l/m 0 min 0 min 15 W/m 3,2 km/h (1 Bft) 100,00 %
16.06.2022 05:56 15,2 C 14,4 C 11,1 C 73 % 1019,6 hPa 0,0 l/m 0 min 0 min 16 W/m 3,2 km/h (1 Bft) 95,65 %
16.06.2022 05:58 15,2 C 14,4 C 11,1 C 73 % 1019,6 hPa 0,0 l/m 0 min 0 min 16 W/m 3,2 km/h (1 Bft) 97,87 %
16.06.2022 06:00 15,1 C 14,4 C 11,1 C 73 % 1019,5 hPa 0,0 l/m 0 min 0 min 16 W/m 3,2 km/h (1 Bft) 97,87 %
16.06.2022 06:02 15,1 C 14,4 C 11,1 C 73 % 1019,6 hPa 0,0 l/m 0 min 0 min 17 W/m 3,2 km/h (1 Bft) 100,00 %
16.06.2022 06:04 15,1 C 14,4 C 11,1 C 73 % 1019,5 hPa 0,0 l/m 0 min 0 min 18 W/m 3,2 km/h (1 Bft) 100,00 %
16.06.2022 06:07 15,1 C 14,4 C 11,1 C 72 % 1019,6 hPa 0,0 l/m 0 min 0 min 19 W/m 12,9 km/h (3 Bft) 98,57 %
16.06.2022 06:08 15,1 C 14,4 C 11,1 C 72 % 1019,5 hPa 0,0 l/m 0 min 0 min 21 W/m 3,2 km/h (1 Bft) 95,65 %
16.06.2022 06:10 15,1 C 14,4 C 11,1 C 72 % 1019,6 hPa 0,0 l/m 0 min 0 min 21 W/m 6,4 km/h (2 Bft) 97,87 %
16.06.2022 06:12 15,0 C 14,4 C 11,1 C 72 % 1019,6 hPa 0,0 l/m 0 min 0 min 21 W/m 3,2 km/h (1 Bft) 97,87 %
16.06.2022 06:14 15,0 C 14,4 C 11,1 C 72 % 1019,6 hPa 0,0 l/m 0 min 0 min 22 W/m 6,4 km/h (2 Bft) 97,87 %
16.06.2022 06:16 15,0 C 14,4 C 11,1 C 72 % 1019,7 hPa 0,0 l/m 0 min 0 min 23 W/m 3,2 km/h (1 Bft) 97,87 %
16.06.2022 06:18 15,0 C 14,4 C 11,1 C 72 % 1019,7 hPa 0,0 l/m 0 min 0 min 23 W/m 9,7 km/h (2 Bft) 95,74 %
16.06.2022 06:20 15,0 C 14,4 C 11,1 C 73 % 1019,7 hPa 0,0 l/m 0 min 0 min 25 W/m 3,2 km/h (1 Bft) 97,83 %
16.06.2022 06:22 15,0 C 14,4 C 11,1 C 72 % 1019,6 hPa 0,0 l/m 0 min 0 min 25 W/m 6,4 km/h (2 Bft) 97,87 %
16.06.2022 06:24 15,0 C 14,4 C 11,1 C 72 % 1019,7 hPa 0,0 l/m 0 min 0 min 25 W/m 3,2 km/h (1 Bft) 97,87 %
16.06.2022 06:26 15,0 C 14,4 C 11,1 C 73 % 1019,7 hPa 0,0 l/m 0 min 0 min 25 W/m 3,2 km/h (1 Bft) 97,87 %
16.06.2022 06:28 15,0 C 14,4 C 11,1 C 73 % 1019,7 hPa 0,0 l/m 0 min 0 min 25 W/m 6,4 km/h (2 Bft) 95,74 %
16.06.2022 06:30 15,0 C 14,4 C 11,1 C 73 % 1019,7 hPa 0,0 l/m 0 min 0 min 26 W/m 3,2 km/h (1 Bft) 97,87 %
16.06.2022 06:32 15,0 C 14,4 C 11,1 C 73 % 1019,7 hPa 0,0 l/m 0 min 0 min 27 W/m 3,2 km/h (1 Bft) 95,65 %
16.06.2022 06:34 15,0 C 14,4 C 11,1 C 74 % 1019,7 hPa 0,0 l/m 0 min 0 min 28 W/m 3,2 km/h (1 Bft) 93,62 %
16.06.2022 06:36 15,0 C 14,4 C 11,1 C 73 % 1019,7 hPa 0,0 l/m 0 min 0 min 28 W/m 6,4 km/h (2 Bft) 91,67 %
16.06.2022 06:38 15,0 C 14,4 C 11,1 C 73 % 1019,8 hPa 0,0 l/m 0 min 0 min 28 W/m 9,7 km/h (2 Bft) 95,92 %
16.06.2022 06:40 15,0 C 14,4 C 11,1 C 73 % 1019,8 hPa 0,0 l/m 0 min 0 min 30 W/m 6,4 km/h (2 Bft) 95,74 %
16.06.2022 06:42 15,0 C 14,4 C 11,1 C 73 % 1019,8 hPa 0,0 l/m 0 min 0 min 30 W/m 3,2 km/h (1 Bft) 95,74 %
16.06.2022 06:44 15,0 C 14,4 C 11,1 C 73 % 1019,8 hPa 0,0 l/m 0 min 0 min 30 W/m 3,2 km/h (1 Bft) 95,74 %
16.06.2022 06:46 15,0 C 14,4 C 11,1 C 73 % 1019,9 hPa 0,0 l/m 0 min 0 min 30 W/m 3,2 km/h (1 Bft) 95,65 %
16.06.2022 06:48 15,1 C 14,4 C 11,1 C 73 % 1019,9 hPa 0,0 l/m 0 min 0 min 31 W/m 6,4 km/h (2 Bft) 93,62 %
16.06.2022 06:50 15,1 C 14,4 C 11,1 C 73 % 1019,9 hPa 0,0 l/m 0 min 0 min 32 W/m 6,4 km/h (2 Bft) 95,74 %
16.06.2022 06:52 15,1 C 14,4 C 11,1 C 73 % 1020,0 hPa 0,0 l/m 0 min 0 min 32 W/m 12,9 km/h (3 Bft) 95,74 %
16.06.2022 06:54 15,1 C 14,4 C 11,1 C 73 % 1019,9 hPa 0,0 l/m 0 min 0 min 32 W/m 9,7 km/h (2 Bft) 95,74 %
16.06.2022 06:56 15,1 C 14,4 C 11,1 C 73 % 1020,0 hPa 0,0 l/m 0 min 0 min 33 W/m 9,7 km/h (2 Bft) 93,62 %
16.06.2022 06:58 15,1 C 14,4 C 11,1 C 73 % 1020,0 hPa 0,0 l/m 0 min 0 min 33 W/m 12,9 km/h (3 Bft) 93,48 %
16.06.2022 07:00 15,1 C 14,4 C 11,1 C 73 % 1020,0 hPa 0,0 l/m 0 min 0 min 34 W/m 12,9 km/h (3 Bft) 93,62 %
16.06.2022 07:02 15,1 C 14,4 C 11,1 C 73 % 1020,0 hPa 0,0 l/m 0 min 0 min 35 W/m 6,4 km/h (2 Bft) 93,62 %
16.06.2022 07:04 15,2 C 14,4 C 11,1 C 73 % 1020,0 hPa 0,0 l/m 0 min 0 min 35 W/m 6,4 km/h (2 Bft) 95,74 %
16.06.2022 07:06 15,2 C 15,0 C 11,1 C 74 % 1020,1 hPa 0,0 l/m 0 min 0 min 37 W/m 6,4 km/h (2 Bft) 93,62 %
16.06.2022 07:08 15,2 C 15,0 C 11,1 C 73 % 1020,1 hPa 0,0 l/m 0 min 0 min 37 W/m 3,2 km/h (1 Bft) 95,74 %
16.06.2022 07:10 15,2 C 15,0 C 11,1 C 73 % 1020,1 hPa 0,0 l/m 0 min 0 min 37 W/m 9,7 km/h (2 Bft) 95,65 %
16.06.2022 07:12 15,2 C 15,0 C 11,7 C 73 % 1020,2 hPa 0,0 l/m 0 min 0 min 37 W/m 3,2 km/h (1 Bft) 93,62 %
16.06.2022 07:14 15,3 C 15,0 C 11,7 C 73 % 1020,3 hPa 0,0 l/m 0 min 0 min 38 W/m 6,4 km/h (2 Bft) 95,74 %
16.06.2022 07:16 15,3 C 15,0 C 11,7 C 73 % 1020,3 hPa 0,0 l/m 0 min 0 min 39 W/m 3,2 km/h (1 Bft) 95,74 %
16.06.2022 07:18 15,3 C 15,0 C 11,7 C 72 % 1020,4 hPa 0,0 l/m 0 min 0 min 39 W/m 9,7 km/h (2 Bft) 95,74 %
16.06.2022 07:20 15,3 C 15,0 C 11,7 C 73 % 1020,4 hPa 0,0 l/m 0 min 0 min 40 W/m 9,7 km/h (2 Bft) 95,74 %
16.06.2022 07:22 15,4 C 15,0 C 11,7 C 73 % 1020,3 hPa 0,0 l/m 0 min 0 min 40 W/m 6,4 km/h (2 Bft) 95,65 %
16.06.2022 07:24 15,4 C 15,0 C 11,7 C 72 % 1020,4 hPa 0,0 l/m 0 min 0 min 42 W/m 12,9 km/h (3 Bft) 97,87 %
16.06.2022 07:26 15,4 C 15,0 C 11,7 C 72 % 1020,4 hPa 0,0 l/m 0 min 0 min 42 W/m 6,4 km/h (2 Bft) 100,00 %
16.06.2022 07:28 15,4 C 15,0 C 11,7 C 73 % 1020,4 hPa 0,0 l/m 0 min 0 min 43 W/m 6,4 km/h (2 Bft) 100,00 %
16.06.2022 07:30 15,5 C 15,0 C 11,7 C 73 % 1020,5 hPa 0,0 l/m 0 min 0 min 44 W/m 6,4 km/h (2 Bft) 100,00 %
16.06.2022 07:32 15,5 C 15,0 C 11,7 C 73 % 1020,5 hPa 0,0 l/m 0 min 0 min 45 W/m 6,4 km/h (2 Bft) 100,00 %
16.06.2022 07:34 15,6 C 15,0 C 11,7 C 73 % 1020,5 hPa 0,0 l/m 0 min 0 min 46 W/m 3,2 km/h (1 Bft) 100,00 %
16.06.2022 07:36 15,6 C 15,6 C 11,7 C 73 % 1020,6 hPa 0,0 l/m 0 min 0 min 47 W/m 3,2 km/h (1 Bft) 100,00 %
16.06.2022 07:38 15,6 C 15,6 C 11,7 C 73 % 1020,6 hPa 0,0 l/m 0 min 0 min 132 W/m 3,2 km/h (1 Bft) 100,00 %
16.06.2022 07:40 15,6 C 15,6 C 11,7 C 72 % 1020,6 hPa 0,0 l/m 2 min 0 min 246 W/m 6,4 km/h (2 Bft) 100,00 %
16.06.2022 07:42 15,7 C 15,6 C 11,7 C 72 % 1020,7 hPa 0,0 l/m 2 min 0 min 270 W/m 9,7 km/h (2 Bft) 100,00 %
16.06.2022 07:44 15,7 C 15,6 C 11,7 C 72 % 1020,7 hPa 0,0 l/m 2 min 0 min 275 W/m 3,2 km/h (1 Bft) 95,74 %
16.06.2022 07:46 15,7 C 15,6 C 12,2 C 72 % 1020,6 hPa 0,0 l/m 2 min 0 min 281 W/m 6,4 km/h (2 Bft) 100,00 %
16.06.2022 07:48 15,8 C 15,6 C 12,2 C 72 % 1020,7 hPa 0,0 l/m 2 min 0 min 287 W/m 9,7 km/h (2 Bft) 100,00 %
16.06.2022 07:50 15,8 C 15,6 C 12,2 C 71 % 1020,7 hPa 0,0 l/m 2 min 0 min 292 W/m 6,4 km/h (2 Bft) 97,87 %
16.06.2022 07:52 15,8 C 15,6 C 12,2 C 71 % 1020,7 hPa 0,0 l/m 2 min 0 min 298 W/m 6,4 km/h (2 Bft) 100,00 %
16.06.2022 07:54 15,9 C 15,6 C 12,2 C 71 % 1020,7 hPa 0,0 l/m 2 min 0 min 305 W/m 6,4 km/h (2 Bft) 95,74 %
16.06.2022 07:56 15,9 C 15,6 C 12,2 C 72 % 1020,7 hPa 0,0 l/m 2 min 0 min 312 W/m 6,4 km/h (2 Bft) 97,87 %
16.06.2022 07:58 16,0 C 16,1 C 12,2 C 71 % 1020,6 hPa 0,0 l/m 2 min 0 min 317 W/m 9,7 km/h (2 Bft) 97,83 %
16.06.2022 08:00 16,1 C 16,1 C 12,2 C 71 % 1020,7 hPa 0,0 l/m 2 min 0 min 323 W/m 9,7 km/h (2 Bft) 95,74 %
16.06.2022 08:02 16,1 C 16,1 C 12,2 C 71 % 1020,7 hPa 0,0 l/m 2 min 0 min 329 W/m 9,7 km/h (2 Bft) 97,87 %
16.06.2022 08:04 16,2 C 16,1 C 12,2 C 71 % 1020,7 hPa 0,0 l/m 2 min 0 min 335 W/m 6,4 km/h (2 Bft) 97,87 %
16.06.2022 08:06 16,3 C 16,7 C 12,2 C 71 % 1020,7 hPa 0,0 l/m 2 min 0 min 344 W/m 6,4 km/h (2 Bft) 94,34 %
16.06.2022 08:08 16,4 C 16,7 C 12,2 C 71 % 1020,8 hPa 0,0 l/m 2 min 0 min 350 W/m 6,4 km/h (2 Bft) 97,83 %
16.06.2022 08:10 16,5 C 17,2 C 12,8 C 70 % 1020,8 hPa 0,0 l/m 2 min 0 min 355 W/m 6,4 km/h (2 Bft) 97,87 %
16.06.2022 08:12 16,6 C 17,2 C 12,8 C 69 % 1020,8 hPa 0,0 l/m 2 min 0 min 360 W/m 6,4 km/h (2 Bft) 93,62 %
16.06.2022 08:14 16,7 C 17,8 C 12,8 C 69 % 1020,8 hPa 0,0 l/m 2 min 0 min 368 W/m 3,2 km/h (1 Bft) 97,87 %
16.06.2022 08:16 16,8 C 18,3 C 12,8 C 69 % 1020,8 hPa 0,0 l/m 2 min 0 min 374 W/m 9,7 km/h (2 Bft) 95,12 %
16.06.2022 08:18 16,9 C 18,9 C 13,3 C 69 % 1020,8 hPa 0,0 l/m 2 min 0 min 380 W/m 9,7 km/h (2 Bft) 97,87 %
16.06.2022 08:20 17,0 C 18,9 C 13,3 C 68 % 1020,9 hPa 0,0 l/m 2 min 0 min 387 W/m 12,9 km/h (3 Bft) 97,87 %
16.06.2022 08:22 17,1 C 19,4 C 13,9 C 68 % 1020,8 hPa 0,0 l/m 2 min 0 min 392 W/m 6,4 km/h (2 Bft) 97,83 %
16.06.2022 08:24 17,1 C 19,4 C 13,9 C 67 % 1020,9 hPa 0,0 l/m 2 min 0 min 398 W/m 12,9 km/h (3 Bft) 97,87 %
16.06.2022 08:26 17,2 C 19,4 C 14,4 C 68 % 1020,9 hPa 0,0 l/m 2 min 0 min 402 W/m 12,9 km/h (3 Bft) 95,74 %
16.06.2022 08:28 17,4 C 20,0 C 15,0 C 67 % 1020,9 hPa 0,0 l/m 2 min 0 min 400 W/m 6,4 km/h (2 Bft) 97,87 %
16.06.2022 08:30 17,4 C 20,0 C 15,0 C 67 % 1020,9 hPa 0,0 l/m 2 min 0 min 414 W/m 6,4 km/h (2 Bft) 97,87 %
16.06.2022 08:32 17,6 C 20,0 C 15,0 C 67 % 1021,0 hPa 0,0 l/m 2 min 0 min 421 W/m 12,9 km/h (3 Bft) 97,87 %
16.06.2022 08:34 17,6 C 20,0 C 15,6 C 66 % 1021,0 hPa 0,0 l/m 2 min 0 min 427 W/m 9,7 km/h (2 Bft) 97,83 %
16.06.2022 08:36 17,7 C 20,6 C 15,6 C 67 % 1021,0 hPa 0,0 l/m 2 min 0 min 433 W/m 12,9 km/h (3 Bft) 100,00 %
16.06.2022 08:38 17,8 C 21,1 C 15,6 C 66 % 1021,1 hPa 0,0 l/m 2 min 0 min 440 W/m 6,4 km/h (2 Bft) 100,00 %
16.06.2022 08:40 17,9 C 21,1 C 16,1 C 66 % 1021,1 hPa 0,0 l/m 2 min 0 min 447 W/m 6,4 km/h (2 Bft) 100,00 %
16.06.2022 08:42 18,1 C 21,7 C 16,1 C 66 % 1021,1 hPa 0,0 l/m 2 min 0 min 453 W/m 6,4 km/h (2 Bft) 97,87 %
16.06.2022 08:44 18,3 C 22,2 C 16,7 C 65 % 1021,1 hPa 0,0 l/m 2 min 0 min 458 W/m 9,7 km/h (2 Bft) 100,00 %
16.06.2022 08:46 18,4 C 22,2 C 16,7 C 65 % 1021,1 hPa 0,0 l/m 2 min 0 min 464 W/m 6,4 km/h (2 Bft) 100,00 %
16.06.2022 08:48 18,5 C 22,2 C 16,7 C 64 % 1021,2 hPa 0,0 l/m 2 min 0 min 472 W/m 12,9 km/h (3 Bft) 100,00 %
16.06.2022 08:50 18,5 C 22,2 C 16,7 C 63 % 1021,1 hPa 0,0 l/m 2 min 0 min 475 W/m 9,7 km/h (2 Bft) 100,00 %
16.06.2022 08:52 18,5 C 22,2 C 16,7 C 63 % 1021,2 hPa 0,0 l/m 2 min 0 min 481 W/m 12,9 km/h (3 Bft) 100,00 %
16.06.2022 08:54 18,7 C 22,8 C 16,7 C 63 % 1021,2 hPa 0,0 l/m 2 min 0 min 488 W/m 12,9 km/h (3 Bft) 100,00 %
16.06.2022 08:56 18,7 C 22,8 C 17,2 C 63 % 1021,2 hPa 0,0 l/m 2 min 0 min 494 W/m 6,4 km/h (2 Bft) 100,00 %
16.06.2022 08:58 18,7 C 23,3 C 17,2 C 62 % 1021,2 hPa 0,0 l/m 2 min 0 min 501 W/m 9,7 km/h (2 Bft) 100,00 %
16.06.2022 09:00 18,9 C 23,9 C 17,2 C 63 % 1021,3 hPa 0,0 l/m 2 min 0 min 508 W/m 16,1 km/h (3 Bft) 97,87 %
16.06.2022 09:02 18,9 C 23,3 C 17,2 C 62 % 1021,3 hPa 0,0 l/m 2 min 0 min 515 W/m 9,7 km/h (2 Bft) 100,00 %
16.06.2022 09:04 18,9 C 23,9 C 17,2 C 61 % 1021,2 hPa 0,0 l/m 2 min 0 min 517 W/m 6,4 km/h (2 Bft) 100,00 %
16.06.2022 09:06 18,9 C 23,3 C 17,2 C 61 % 1021,4 hPa 0,0 l/m 2 min 0 min 516 W/m 6,4 km/h (2 Bft) 98,11 %
16.06.2022 09:08 18,8 C 23,3 C 17,2 C 61 % 1021,3 hPa 0,0 l/m 2 min 0 min 531 W/m 12,9 km/h (3 Bft) 100,00 %
16.06.2022 09:10 18,7 C 22,8 C 17,2 C 60 % 1021,4 hPa 0,0 l/m 2 min 0 min 538 W/m 12,9 km/h (3 Bft) 100,00 %
16.06.2022 09:12 18,7 C 23,3 C 17,8 C 62 % 1021,4 hPa 0,0 l/m 2 min 0 min 542 W/m 6,4 km/h (2 Bft) 97,87 %
16.06.2022 09:14 18,8 C 24,4 C 18,3 C 62 % 1021,4 hPa 0,0 l/m 2 min 0 min 551 W/m 3,2 km/h (1 Bft) 97,87 %
16.06.2022 09:16 18,9 C 24,4 C 18,3 C 61 % 1021,5 hPa 0,0 l/m 2 min 0 min 549 W/m 12,9 km/h (3 Bft) 95,12 %
16.06.2022 09:18 19,0 C 25,0 C 18,3 C 61 % 1021,5 hPa 0,0 l/m 2 min 0 min 564 W/m 9,7 km/h (2 Bft) 97,87 %
16.06.2022 09:20 19,2 C 26,1 C 18,3 C 61 % 1021,5 hPa 0,0 l/m 2 min 0 min 569 W/m 9,7 km/h (2 Bft) 97,87 %
16.06.2022 09:22 19,5 C 26,7 C 18,3 C 60 % 1021,5 hPa 0,0 l/m 2 min 0 min 575 W/m 6,4 km/h (2 Bft) 95,65 %
16.06.2022 09:24 19,7 C 27,2 C 18,3 C 61 % 1021,4 hPa 0,0 l/m 2 min 0 min 580 W/m 16,1 km/h (3 Bft) 95,74 %
16.06.2022 09:26 19,9 C 27,2 C 18,9 C 59 % 1021,5 hPa 0,0 l/m 2 min 0 min 585 W/m 12,9 km/h (3 Bft) 97,87 %
16.06.2022 09:28 20,1 C 27,8 C 18,9 C 59 % 1021,5 hPa 0,0 l/m 2 min 0 min 591 W/m 6,4 km/h (2 Bft) 97,87 %
16.06.2022 09:30 20,1 C 26,7 C 18,9 C 58 % 1021,5 hPa 0,0 l/m 2 min 0 min 595 W/m 16,1 km/h (3 Bft) 97,87 %
16.06.2022 09:32 19,9 C 26,7 C 18,9 C 59 % 1021,6 hPa 0,0 l/m 2 min 0 min 603 W/m 12,9 km/h (3 Bft) 97,83 %
16.06.2022 09:34 19,9 C 26,7 C 18,9 C 58 % 1021,5 hPa 0,0 l/m 2 min 0 min 608 W/m 6,4 km/h (2 Bft) 97,87 %
16.06.2022 09:36 20,0 C 27,2 C 18,9 C 59 % 1021,5 hPa 0,0 l/m 2 min 0 min 615 W/m 6,4 km/h (2 Bft) 98,11 %
16.06.2022 09:38 20,1 C 27,2 C 19,4 C 60 % 1021,5 hPa 0,0 l/m 2 min 0 min 619 W/m 3,2 km/h (1 Bft) 95,74 %
16.06.2022 09:40 20,1 C 27,2 C 20,0 C 58 % 1021,5 hPa 0,0 l/m 2 min 0 min 625 W/m 6,4 km/h (2 Bft) 97,87 %
16.06.2022 09:42 20,2 C 27,2 C 20,0 C 57 % 1021,6 hPa 0,0 l/m 2 min 0 min 630 W/m 9,7 km/h (2 Bft) 97,87 %
16.06.2022 09:44 20,3 C 27,2 C 19,4 C 58 % 1021,5 hPa 0,0 l/m 2 min 0 min 636 W/m 12,9 km/h (3 Bft) 95,65 %
16.06.2022 09:46 20,4 C 27,2 C 19,4 C 57 % 1021,6 hPa 0,0 l/m 2 min 0 min 641 W/m 12,9 km/h (3 Bft) 97,56 %
16.06.2022 09:48 20,4 C 26,7 C 18,9 C 57 % 1021,6 hPa 0,0 l/m 2 min 0 min 643 W/m 12,9 km/h (3 Bft) 97,87 %
16.06.2022 09:50 20,5 C 26,7 C 20,0 C 57 % 1021,7 hPa 0,0 l/m 2 min 0 min 650 W/m 9,7 km/h (2 Bft) 97,87 %
16.06.2022 09:52 20,6 C 26,7 C 20,0 C 57 % 1021,7 hPa 0,0 l/m 2 min 0 min 654 W/m 6,4 km/h (2 Bft) 97,87 %
16.06.2022 09:54 20,7 C 26,7 C 20,6 C 57 % 1021,7 hPa 0,0 l/m 2 min 0 min 659 W/m 3,2 km/h (1 Bft) 100,00 %
16.06.2022 09:56 20,7 C 26,1 C 20,6 C 56 % 1021,8 hPa 0,0 l/m 2 min 0 min 662 W/m 12,9 km/h (3 Bft) 97,87 %
16.06.2022 09:58 20,7 C 26,1 C 21,1 C 55 % 1021,8 hPa 0,0 l/m 2 min 0 min 669 W/m 6,4 km/h (2 Bft) 98,00 %
16.06.2022 10:00 20,6 C 25,6 C 20,6 C 56 % 1021,8 hPa 0,0 l/m 2 min 0 min 674 W/m 6,4 km/h (2 Bft) 100,00 %
16.06.2022 10:02 20,7 C 25,6 C 21,1 C 57 % 1021,7 hPa 0,0 l/m 2 min 0 min 680 W/m 16,1 km/h (3 Bft) 97,87 %
16.06.2022 10:04 20,8 C 25,6 C 21,1 C 56 % 1021,8 hPa 0,0 l/m 2 min 0 min 685 W/m 12,9 km/h (3 Bft) 97,87 %
16.06.2022 10:06 20,9 C 25,6 C 20,6 C 56 % 1021,8 hPa 0,0 l/m 2 min 0 min 690 W/m 12,9 km/h (3 Bft) 97,87 %
16.06.2022 10:08 20,8 C 25,0 C 21,1 C 55 % 1021,8 hPa 0,0 l/m 2 min 0 min 692 W/m 12,9 km/h (3 Bft) 95,65 %
16.06.2022 10:10 20,8 C 25,6 C 20,6 C 56 % 1021,8 hPa 0,0 l/m 2 min 0 min 698 W/m 19,3 km/h (3 Bft) 97,87 %
16.06.2022 10:12 20,8 C 25,0 C 21,1 C 55 % 1021,9 hPa 0,0 l/m 2 min 0 min 704 W/m 12,9 km/h (3 Bft) 97,87 %
16.06.2022 10:14 20,8 C 25,0 C 21,1 C 56 % 1021,9 hPa 0,0 l/m 2 min 0 min 708 W/m 12,9 km/h (3 Bft) 97,87 %
16.06.2022 10:16 20,9 C 25,0 C 21,1 C 56 % 1021,9 hPa 0,0 l/m 2 min 0 min 711 W/m 16,1 km/h (3 Bft) 97,87 %
16.06.2022 10:18 20,9 C 25,6 C 21,1 C 55 % 1021,8 hPa 0,0 l/m 2 min 0 min 718 W/m 9,7 km/h (2 Bft) 97,87 %
16.06.2022 10:20 20,9 C 25,6 C 20,6 C 55 % 1021,9 hPa 0,0 l/m 2 min 0 min 723 W/m 22,5 km/h (4 Bft) 95,65 %
16.06.2022 10:22 20,9 C 25,0 C 20,6 C 54 % 1021,9 hPa 0,0 l/m 2 min 0 min 727 W/m 19,3 km/h (3 Bft) 97,87 %
16.06.2022 10:24 20,9 C 25,0 C 21,1 C 55 % 1021,9 hPa 0,0 l/m 2 min 0 min 730 W/m 12,9 km/h (3 Bft) 95,74 %
16.06.2022 10:26 20,9 C 24,4 C 21,7 C 54 % 1022,0 hPa 0,0 l/m 2 min 0 min 736 W/m 19,3 km/h (3 Bft) 97,87 %
16.06.2022 10:28 20,9 C 25,0 C 21,7 C 55 % 1021,9 hPa 0,0 l/m 2 min 0 min 741 W/m 16,1 km/h (3 Bft) 97,87 %
16.06.2022 10:30 20,9 C 24,4 C 21,1 C 55 % 1021,9 hPa 0,0 l/m 2 min 0 min 746 W/m 19,3 km/h (3 Bft) 95,74 %
16.06.2022 10:32 20,9 C 23,3 C 21,7 C 54 % 1022,0 hPa 0,0 l/m 2 min 0 min 750 W/m 12,9 km/h (3 Bft) 97,83 %
16.06.2022 10:34 20,9 C 23,9 C 21,7 C 55 % 1022,0 hPa 0,0 l/m 2 min 0 min 756 W/m 9,7 km/h (2 Bft) 97,87 %
16.06.2022 10:36 20,9 C 23,9 C 22,2 C 55 % 1022,1 hPa 0,0 l/m 2 min 0 min 760 W/m 6,4 km/h (2 Bft) 95,74 %
16.06.2022 10:38 20,8 C 23,3 C 22,2 C 56 % 1022,1 hPa 0,0 l/m 2 min 0 min 763 W/m 16,1 km/h (3 Bft) 100,00 %
16.06.2022 10:40 20,7 C 23,3 C 21,7 C 57 % 1022,2 hPa 0,0 l/m 2 min 0 min 766 W/m 19,3 km/h (3 Bft) 97,87 %
16.06.2022 10:42 20,7 C 23,3 C 22,2 C 57 % 1022,2 hPa 0,0 l/m 2 min 0 min 770 W/m 9,7 km/h (2 Bft) 97,87 %
16.06.2022 10:44 20,7 C 22,8 C 22,2 C 56 % 1022,2 hPa 0,0 l/m 2 min 0 min 775 W/m 12,9 km/h (3 Bft) 100,00 %
16.06.2022 10:46 20,8 C 23,3 C 22,2 C 56 % 1022,2 hPa 0,0 l/m 2 min 0 min 780 W/m 9,7 km/h (2 Bft) 97,87 %
16.06.2022 10:48 20,9 C 23,3 C 22,2 C 56 % 1022,2 hPa 0,0 l/m 2 min 0 min 782 W/m 16,1 km/h (3 Bft) 97,87 %
16.06.2022 10:50 21,0 C 23,9 C 22,8 C 55 % 1022,2 hPa 0,0 l/m 2 min 0 min 789 W/m 12,9 km/h (3 Bft) 97,87 %
16.06.2022 10:52 20,9 C 23,3 C 22,8 C 55 % 1022,1 hPa 0,0 l/m 2 min 0 min 792 W/m 12,9 km/h (3 Bft) 97,87 %
16.06.2022 10:54 20,9 C 23,3 C 22,2 C 56 % 1022,1 hPa 0,0 l/m 2 min 0 min 796 W/m 12,9 km/h (3 Bft) 97,83 %
16.06.2022 10:56 20,9 C 23,9 C 21,1 C 56 % 1022,1 hPa 0,0 l/m 2 min 0 min 800 W/m 12,9 km/h (3 Bft) 97,87 %
16.06.2022 10:58 20,9 C 23,9 C 21,1 C 56 % 1022,1 hPa 0,0 l/m 2 min 0 min 801 W/m 9,7 km/h (2 Bft) 97,87 %
16.06.2022 11:00 21,0 C 24,4 C 20,6 C 55 % 1022,1 hPa 0,0 l/m 2 min 0 min 803 W/m 25,7 km/h (4 Bft) 97,87 %
16.06.2022 11:02 21,1 C 24,4 C 20,0 C 56 % 1022,1 hPa 0,0 l/m 2 min 0 min 809 W/m 12,9 km/h (3 Bft) 95,74 %
16.06.2022 11:04 21,1 C 23,9 C 19,4 C 54 % 1022,1 hPa 0,0 l/m 2 min 0 min 812 W/m 19,3 km/h (3 Bft) 97,87 %
16.06.2022 11:06 21,1 C 24,4 C 18,9 C 55 % 1022,2 hPa 0,0 l/m 2 min 0 min 820 W/m 9,7 km/h (2 Bft) 95,74 %
16.06.2022 11:08 21,2 C 24,4 C 19,4 C 56 % 1022,2 hPa 0,0 l/m 2 min 0 min 823 W/m 16,1 km/h (3 Bft) 97,83 %
16.06.2022 11:10 21,3 C 25,0 C 18,9 C 55 % 1022,2 hPa 0,0 l/m 2 min 0 min 824 W/m 12,9 km/h (3 Bft) 97,87 %
16.06.2022 11:12 21,4 C 24,4 C 18,9 C 54 % 1022,2 hPa 0,0 l/m 2 min 0 min 829 W/m 19,3 km/h (3 Bft) 95,74 %
16.06.2022 11:14 21,4 C 25,0 C 18,9 C 54 % 1022,2 hPa 0,0 l/m 2 min 0 min 832 W/m 19,3 km/h (3 Bft) 95,74 %
16.06.2022 11:16 21,5 C 24,4 C 18,3 C 53 % 1022,2 hPa 0,0 l/m 2 min 0 min 836 W/m 22,5 km/h (4 Bft) 97,87 %
16.06.2022 11:18 21,4 C 24,4 C 18,3 C 53 % 1022,2 hPa 0,0 l/m 2 min 0 min 838 W/m 12,9 km/h (3 Bft) 97,83 %
16.06.2022 11:20 21,5 C 24,4 C 18,9 C 54 % 1022,2 hPa 0,0 l/m 2 min 0 min 841 W/m 12,9 km/h (3 Bft) 97,87 %
16.06.2022 11:22 21,6 C 25,0 C 18,9 C 55 % 1022,3 hPa 0,0 l/m 2 min 0 min 844 W/m 16,1 km/h (3 Bft) 97,87 %
16.06.2022 11:24 21,7 C 25,6 C 18,9 C 53 % 1022,3 hPa 0,0 l/m 2 min 0 min 848 W/m 9,7 km/h (2 Bft) 97,87 %
16.06.2022 11:26 21,9 C 25,6 C 20,0 C 53 % 1022,3 hPa 0,0 l/m 2 min 0 min 852 W/m 16,1 km/h (3 Bft) 97,87 %
16.06.2022 11:28 22,0 C 26,1 C 20,6 C 53 % 1022,4 hPa 0,0 l/m 2 min 0 min 856 W/m 12,9 km/h (3 Bft) 97,87 %
16.06.2022 11:30 22,1 C 25,6 C 20,6 C 52 % 1022,4 hPa 0,0 l/m 2 min 0 min 858 W/m 16,1 km/h (3 Bft) 97,83 %
16.06.2022 11:32 22,1 C 26,1 C 20,0 C 52 % 1022,5 hPa 0,0 l/m 2 min 0 min 861 W/m 9,7 km/h (2 Bft) 97,87 %
16.06.2022 11:34 22,2 C 26,1 C 20,6 C 53 % 1022,6 hPa 0,0 l/m 2 min 0 min 865 W/m 16,1 km/h (3 Bft) 97,87 %
16.06.2022 11:36 22,3 C 26,1 C 20,0 C 52 % 1022,6 hPa 0,0 l/m 2 min 0 min 872 W/m 19,3 km/h (3 Bft) 97,87 %
16.06.2022 11:38 22,3 C 25,6 C 20,6 C 51 % 1022,6 hPa 0,0 l/m 2 min 0 min 873 W/m 12,9 km/h (3 Bft) 100,00 %
16.06.2022 11:40 22,3 C 25,6 C 21,7 C 51 % 1022,7 hPa 0,0 l/m 2 min 0 min 879 W/m 22,5 km/h (4 Bft) 97,87 %
16.06.2022 11:42 22,4 C 25,6 C 22,2 C 50 % 1022,6 hPa 0,0 l/m 2 min 0 min 884 W/m 9,7 km/h (2 Bft) 93,48 %
16.06.2022 11:44 22,3 C 25,0 C 23,3 C 51 % 1022,7 hPa 0,0 l/m 2 min 0 min 891 W/m 16,1 km/h (3 Bft) 91,49 %
16.06.2022 11:46 22,3 C 25,6 C 24,4 C 52 % 1022,6 hPa 0,0 l/m 2 min 0 min 894 W/m 9,7 km/h (2 Bft) 93,62 %
16.06.2022 11:48 22,4 C 25,6 C 24,4 C 52 % 1022,7 hPa 0,0 l/m 2 min 0 min 894 W/m 16,1 km/h (3 Bft) 95,74 %
16.06.2022 11:50 22,4 C 25,6 C 24,4 C 51 % 1022,7 hPa 0,0 l/m 2 min 0 min 893 W/m 12,9 km/h (3 Bft) 95,74 %
16.06.2022 11:52 22,4 C 25,6 C 23,9 C 52 % 1022,7 hPa 0,0 l/m 2 min 0 min 893 W/m 19,3 km/h (3 Bft) 95,74 %
16.06.2022 11:54 22,5 C 25,6 C 23,9 C 51 % 1022,7 hPa 0,0 l/m 2 min 0 min 894 W/m 22,5 km/h (4 Bft) 95,65 %
16.06.2022 11:56 22,6 C 25,6 C 24,4 C 50 % 1022,7 hPa 0,0 l/m 2 min 0 min 896 W/m 16,1 km/h (3 Bft) 93,62 %
16.06.2022 11:58 22,6 C 25,0 C 25,0 C 50 % 1022,7 hPa 0,0 l/m 2 min 0 min 897 W/m 22,5 km/h (4 Bft) 91,49 %
16.06.2022 12:00 22,5 C 25,6 C 25,0 C 51 % 1022,8 hPa 0,0 l/m 2 min 0 min 901 W/m 12,9 km/h (3 Bft) 95,74 %
16.06.2022 12:02 22,5 C 25,6 C 25,0 C 50 % 1022,8 hPa 0,0 l/m 2 min 0 min 901 W/m 9,7 km/h (2 Bft) 97,87 %
16.06.2022 12:04 22,6 C 25,6 C 25,6 C 50 % 1022,8 hPa 0,0 l/m 2 min 0 min 905 W/m 6,4 km/h (2 Bft) 95,74 %
16.06.2022 12:07 22,7 C 26,1 C 26,1 C 51 % 1022,9 hPa 0,0 l/m 3 min 0 min 906 W/m 16,1 km/h (3 Bft) 95,71 %
16.06.2022 12:08 22,8 C 26,1 C 26,7 C 50 % 1022,9 hPa 0,0 l/m 1 min 0 min 908 W/m 9,7 km/h (2 Bft) 95,65 %
16.06.2022 12:10 22,8 C 25,6 C 26,1 C 50 % 1022,9 hPa 0,0 l/m 2 min 0 min 907 W/m 16,1 km/h (3 Bft) 95,74 %
16.06.2022 12:12 22,8 C 25,6 C 26,7 C 50 % 1022,9 hPa 0,0 l/m 2 min 0 min 910 W/m 9,7 km/h (2 Bft) 93,62 %
16.06.2022 12:14 22,9 C 25,6 C 27,8 C 50 % 1023,0 hPa 0,0 l/m 2 min 0 min 914 W/m 9,7 km/h (2 Bft) 95,74 %
16.06.2022 12:16 22,9 C 26,1 C 28,3 C 50 % 1023,0 hPa 0,0 l/m 2 min 0 min 919 W/m 6,4 km/h (2 Bft) 95,74 %
16.06.2022 12:18 23,1 C 26,1 C 28,3 C 50 % 1022,9 hPa 0,0 l/m 2 min 0 min 920 W/m 12,9 km/h (3 Bft) 95,74 %
16.06.2022 12:20 23,2 C 26,1 C 27,8 C 50 % 1023,0 hPa 0,0 l/m 2 min 0 min 919 W/m 12,9 km/h (3 Bft) 95,65 %
16.06.2022 12:22 23,3 C 26,1 C 28,3 C 49 % 1023,0 hPa 0,0 l/m 2 min 0 min 921 W/m 22,5 km/h (4 Bft) 95,74 %
16.06.2022 12:24 23,1 C 25,0 C 28,3 C 50 % 1023,1 hPa 0,0 l/m 2 min 0 min 921 W/m 12,9 km/h (3 Bft) 95,74 %
16.06.2022 12:26 23,1 C 25,6 C 28,3 C 49 % 1023,0 hPa 0,0 l/m 2 min 0 min 926 W/m 16,1 km/h (3 Bft) 97,87 %
16.06.2022 12:28 23,2 C 26,1 C 28,3 C 51 % 1023,1 hPa 0,0 l/m 2 min 0 min 928 W/m 6,4 km/h (2 Bft) 97,87 %
16.06.2022 12:30 23,3 C 25,6 C 27,8 C 50 % 1023,0 hPa 0,0 l/m 2 min 0 min 929 W/m 12,9 km/h (3 Bft) 97,83 %
16.06.2022 12:32 23,3 C 25,0 C 28,3 C 48 % 1023,0 hPa 0,0 l/m 2 min 0 min 929 W/m 12,9 km/h (3 Bft) 95,74 %
16.06.2022 12:34 23,2 C 25,0 C 27,8 C 50 % 1023,0 hPa 0,0 l/m 2 min 0 min 932 W/m 16,1 km/h (3 Bft) 97,87 %
16.06.2022 12:36 23,3 C 25,6 C 27,8 C 49 % 1023,1 hPa 0,0 l/m 2 min 0 min 934 W/m 16,1 km/h (3 Bft) 97,87 %
16.06.2022 12:38 23,3 C 25,6 C 28,3 C 49 % 1023,0 hPa 0,0 l/m 2 min 0 min 936 W/m 9,7 km/h (2 Bft) 97,87 %
16.06.2022 12:40 23,4 C 26,1 C 27,8 C 50 % 1023,0 hPa 0,0 l/m 2 min 0 min 936 W/m 12,9 km/h (3 Bft) 93,62 %
16.06.2022 12:42 23,4 C 25,6 C 28,3 C 49 % 1022,9 hPa 0,0 l/m 2 min 0 min 940 W/m 19,3 km/h (3 Bft) 100,00 %
16.06.2022 12:44 23,4 C 25,6 C 28,9 C 50 % 1023,0 hPa 0,0 l/m 2 min 0 min 944 W/m 12,9 km/h (3 Bft) 100,00 %
16.06.2022 12:46 23,5 C 25,6 C 28,9 C 49 % 1022,9 hPa 0,0 l/m 2 min 0 min 944 W/m 12,9 km/h (3 Bft) 97,87 %
16.06.2022 12:48 23,4 C 25,0 C 28,3 C 49 % 1022,9 hPa 0,0 l/m 2 min 0 min 944 W/m 9,7 km/h (2 Bft) 97,87 %
16.06.2022 12:50 23,5 C 25,6 C 29,4 C 50 % 1023,0 hPa 0,0 l/m 2 min 0 min 946 W/m 12,9 km/h (3 Bft) 100,00 %
16.06.2022 12:52 23,6 C 25,6 C 28,3 C 50 % 1022,9 hPa 0,0 l/m 2 min 0 min 948 W/m 16,1 km/h (3 Bft) 97,87 %
16.06.2022 12:54 23,6 C 25,6 C 28,9 C 49 % 1022,9 hPa 0,0 l/m 2 min 0 min 952 W/m 16,1 km/h (3 Bft) 100,00 %
16.06.2022 12:56 23,7 C 25,6 C 29,4 C 50 % 1022,8 hPa 0,0 l/m 2 min 0 min 956 W/m 9,7 km/h (2 Bft) 100,00 %
16.06.2022 12:58 23,8 C 26,1 C 28,9 C 49 % 1022,8 hPa 0,0 l/m 2 min 0 min 953 W/m 12,9 km/h (3 Bft) 97,87 %
16.06.2022 13:00 23,8 C 25,6 C 28,9 C 49 % 1022,8 hPa 0,0 l/m 2 min 0 min 951 W/m 16,1 km/h (3 Bft) 100,00 %
16.06.2022 13:02 23,7 C 25,0 C 28,3 C 48 % 1022,8 hPa 0,0 l/m 2 min 0 min 955 W/m 16,1 km/h (3 Bft) 100,00 %
16.06.2022 13:04 23,7 C 25,0 C 28,3 C 48 % 1022,8 hPa 0,0 l/m 2 min 0 min 955 W/m 16,1 km/h (3 Bft) 97,87 %
16.06.2022 13:06 23,8 C 25,6 C 27,8 C 49 % 1022,8 hPa 0,0 l/m 2 min 0 min 955 W/m 19,3 km/h (3 Bft) 100,00 %
16.06.2022 13:08 23,8 C 25,6 C 27,8 C 49 % 1022,7 hPa 0,0 l/m 2 min 0 min 957 W/m 16,1 km/h (3 Bft) 100,00 %
16.06.2022 13:10 23,9 C 25,6 C 27,8 C 49 % 1022,8 hPa 0,0 l/m 2 min 0 min 955 W/m 12,9 km/h (3 Bft) 100,00 %
16.06.2022 13:12 23,9 C 25,6 C 28,9 C 49 % 1022,8 hPa 0,0 l/m 2 min 0 min 954 W/m 12,9 km/h (3 Bft) 100,00 %
16.06.2022 13:14 23,8 C 25,6 C 28,9 C 49 % 1022,7 hPa 0,0 l/m 2 min 0 min 957 W/m 12,9 km/h (3 Bft) 100,00 %
16.06.2022 13:16 23,9 C 25,6 C 28,9 C 49 % 1022,8 hPa 0,0 l/m 2 min 0 min 957 W/m 12,9 km/h (3 Bft) 100,00 %
16.06.2022 13:18 23,9 C 25,6 C 29,4 C 48 % 1022,8 hPa 0,0 l/m 2 min 0 min 958 W/m 19,3 km/h (3 Bft) 100,00 %
16.06.2022 13:20 23,9 C 25,6 C 29,4 C 50 % 1022,7 hPa 0,0 l/m 2 min 0 min 958 W/m 12,9 km/h (3 Bft) 100,00 %
16.06.2022 13:22 24,0 C 25,6 C 28,9 C 49 % 1022,8 hPa 0,0 l/m 2 min 0 min 958 W/m 12,9 km/h (3 Bft) 100,00 %
16.06.2022 13:24 24,1 C 25,6 C 28,9 C 50 % 1022,8 hPa 0,0 l/m 2 min 0 min 960 W/m 12,9 km/h (3 Bft) 100,00 %
16.06.2022 13:26 24,1 C 25,6 C 28,9 C 50 % 1022,9 hPa 0,0 l/m 2 min 0 min 960 W/m 19,3 km/h (3 Bft) 100,00 %
16.06.2022 13:28 24,1 C 25,6 C 29,4 C 49 % 1022,9 hPa 0,0 l/m 2 min 0 min 958 W/m 19,3 km/h (3 Bft) 100,00 %
16.06.2022 13:30 24,1 C 26,1 C 28,3 C 49 % 1023,0 hPa 0,0 l/m 2 min 0 min 958 W/m 16,1 km/h (3 Bft) 100,00 %
16.06.2022 13:32 24,1 C 26,1 C 28,3 C 49 % 1023,0 hPa 0,0 l/m 2 min 0 min 959 W/m 22,5 km/h (4 Bft) 100,00 %
16.06.2022 13:34 24,1 C 26,1 C 28,3 C 50 % 1022,9 hPa 0,0 l/m 2 min 0 min 959 W/m 12,9 km/h (3 Bft) 97,87 %
16.06.2022 13:36 23,9 C 25,6 C 29,4 C 48 % 1022,8 hPa 0,0 l/m 2 min 0 min 958 W/m 9,7 km/h (2 Bft) 100,00 %
16.06.2022 13:38 23,9 C 26,1 C 29,4 C 50 % 1022,8 hPa 0,0 l/m 2 min 0 min 961 W/m 16,1 km/h (3 Bft) 100,00 %
16.06.2022 13:40 24,0 C 26,7 C 28,9 C 50 % 1022,7 hPa 0,0 l/m 2 min 0 min 961 W/m 9,7 km/h (2 Bft) 100,00 %
16.06.2022 13:42 24,2 C 27,2 C 28,9 C 51 % 1022,8 hPa 0,0 l/m 2 min 0 min 957 W/m 9,7 km/h (2 Bft) 97,83 %
16.06.2022 13:44 24,3 C 27,8 C 29,4 C 50 % 1022,7 hPa 0,0 l/m 2 min 0 min 962 W/m 9,7 km/h (2 Bft) 100,00 %
16.06.2022 13:46 24,4 C 27,8 C 29,4 C 49 % 1022,7 hPa 0,0 l/m 2 min 0 min 962 W/m 12,9 km/h (3 Bft) 100,00 %
16.06.2022 13:48 24,5 C 27,2 C 29,4 C 49 % 1022,7 hPa 0,0 l/m 2 min 0 min 961 W/m 19,3 km/h (3 Bft) 100,00 %
16.06.2022 13:50 24,4 C 26,7 C 28,9 C 49 % 1022,7 hPa 0,0 l/m 2 min 0 min 961 W/m 19,3 km/h (3 Bft) 100,00 %
16.06.2022 13:52 24,4 C 26,7 C 28,3 C 49 % 1022,7 hPa 0,0 l/m 2 min 0 min 960 W/m 22,5 km/h (4 Bft) 97,87 %
16.06.2022 13:54 24,6 C 27,2 C 28,3 C 50 % 1022,9 hPa 0,0 l/m 2 min 0 min 956 W/m 19,3 km/h (3 Bft) 100,00 %
16.06.2022 13:56 24,5 C 26,7 C 27,8 C 47 % 1022,9 hPa 0,0 l/m 2 min 0 min 957 W/m 19,3 km/h (3 Bft) 100,00 %
16.06.2022 13:58 24,4 C 27,2 C 26,7 C 49 % 1022,9 hPa 0,0 l/m 2 min 0 min 958 W/m 12,9 km/h (3 Bft) 100,00 %
16.06.2022 14:00 24,6 C 27,8 C 25,0 C 49 % 1022,9 hPa 0,0 l/m 2 min 0 min 957 W/m 19,3 km/h (3 Bft) 100,00 %
16.06.2022 14:02 24,6 C 27,8 C 24,4 C 49 % 1022,8 hPa 0,0 l/m 2 min 0 min 956 W/m 12,9 km/h (3 Bft) 95,74 %
16.06.2022 14:04 24,7 C 27,8 C 23,9 C 49 % 1022,8 hPa 0,0 l/m 2 min 0 min 954 W/m 12,9 km/h (3 Bft) 100,00 %
16.06.2022 14:06 24,8 C 27,8 C 22,8 C 49 % 1022,8 hPa 0,0 l/m 2 min 0 min 953 W/m 16,1 km/h (3 Bft) 100,00 %
16.06.2022 14:08 24,9 C 27,8 C 22,2 C 49 % 1022,8 hPa 0,0 l/m 2 min 0 min 953 W/m 16,1 km/h (3 Bft) 100,00 %
16.06.2022 14:10 24,9 C 28,3 C 22,2 C 48 % 1022,7 hPa 0,0 l/m 2 min 0 min 954 W/m 9,7 km/h (2 Bft) 95,74 %
16.06.2022 14:12 24,9 C 28,3 C 21,7 C 48 % 1022,7 hPa 0,0 l/m 2 min 0 min 951 W/m 9,7 km/h (2 Bft) 95,74 %
16.06.2022 14:14 25,0 C 28,3 C 21,7 C 49 % 1022,8 hPa 0,0 l/m 2 min 0 min 951 W/m 16,1 km/h (3 Bft) 95,74 %
16.06.2022 14:16 24,9 C 27,8 C 21,7 C 48 % 1022,7 hPa 0,0 l/m 2 min 0 min 954 W/m 12,9 km/h (3 Bft) 95,74 %
16.06.2022 14:18 25,0 C 28,3 C 21,7 C 48 % 1022,7 hPa 0,0 l/m 2 min 0 min 953 W/m 16,1 km/h (3 Bft) 93,48 %
16.06.2022 14:20 25,1 C 27,8 C 21,7 C 47 % 1022,7 hPa 0,0 l/m 2 min 0 min 952 W/m 16,1 km/h (3 Bft) 93,62 %
16.06.2022 14:22 25,1 C 27,8 C 21,1 C 48 % 1022,7 hPa 0,0 l/m 2 min 0 min 952 W/m 12,9 km/h (3 Bft) 93,62 %
16.06.2022 14:24 25,1 C 27,8 C 21,1 C 47 % 1022,7 hPa 0,0 l/m 2 min 0 min 948 W/m 12,9 km/h (3 Bft) 95,74 %
16.06.2022 14:26 25,1 C 27,2 C 21,1 C 48 % 1022,7 hPa 0,0 l/m 2 min 0 min 944 W/m 19,3 km/h (3 Bft) 95,74 %
16.06.2022 14:28 25,0 C 27,8 C 21,1 C 48 % 1022,7 hPa 0,0 l/m 2 min 0 min 945 W/m 9,7 km/h (2 Bft) 95,65 %
16.06.2022 14:30 25,1 C 28,3 C 21,1 C 49 % 1022,7 hPa 0,0 l/m 2 min 0 min 946 W/m 12,9 km/h (3 Bft) 95,74 %
16.06.2022 14:32 25,2 C 28,3 C 21,1 C 48 % 1022,6 hPa 0,0 l/m 2 min 0 min 942 W/m 12,9 km/h (3 Bft) 91,49 %
16.06.2022 14:34 25,2 C 27,8 C 21,1 C 47 % 1022,7 hPa 0,0 l/m 2 min 0 min 940 W/m 22,5 km/h (4 Bft) 93,62 %
16.06.2022 14:36 25,2 C 28,3 C 21,1 C 47 % 1022,7 hPa 0,0 l/m 2 min 0 min 939 W/m 12,9 km/h (3 Bft) 91,49 %
16.06.2022 14:38 25,3 C 28,3 C 21,1 C 47 % 1022,7 hPa 0,0 l/m 2 min 0 min 935 W/m 19,3 km/h (3 Bft) 93,62 %
16.06.2022 14:40 25,3 C 28,3 C 21,1 C 47 % 1022,6 hPa 0,0 l/m 2 min 0 min 933 W/m 16,1 km/h (3 Bft) 95,65 %
16.06.2022 14:42 25,3 C 27,8 C 21,1 C 46 % 1022,6 hPa 0,0 l/m 2 min 0 min 936 W/m 16,1 km/h (3 Bft) 93,62 %
16.06.2022 14:44 25,2 C 27,8 C 21,1 C 47 % 1022,6 hPa 0,0 l/m 2 min 0 min 934 W/m 9,7 km/h (2 Bft) 93,62 %
16.06.2022 14:46 25,2 C 28,3 C 21,1 C 48 % 1022,6 hPa 0,0 l/m 2 min 0 min 930 W/m 12,9 km/h (3 Bft) 93,62 %
16.06.2022 14:48 25,3 C 28,9 C 21,7 C 48 % 1022,6 hPa 0,0 l/m 2 min 0 min 929 W/m 9,7 km/h (2 Bft) 95,74 %
16.06.2022 14:50 25,4 C 28,9 C 21,1 C 47 % 1022,6 hPa 0,0 l/m 2 min 0 min 927 W/m 16,1 km/h (3 Bft) 95,74 %
16.06.2022 14:52 25,4 C 28,9 C 21,7 C 47 % 1022,6 hPa 0,0 l/m 2 min 0 min 925 W/m 19,3 km/h (3 Bft) 95,65 %
16.06.2022 14:54 25,5 C 28,9 C 21,7 C 48 % 1022,7 hPa 0,0 l/m 2 min 0 min 924 W/m 12,9 km/h (3 Bft) 93,62 %
16.06.2022 14:56 25,4 C 28,3 C 21,1 C 46 % 1022,6 hPa 0,0 l/m 2 min 0 min 919 W/m 16,1 km/h (3 Bft) 95,74 %
16.06.2022 14:58 25,5 C 28,3 C 21,7 C 47 % 1022,7 hPa 0,0 l/m 2 min 0 min 919 W/m 12,9 km/h (3 Bft) 97,87 %
16.06.2022 15:00 25,6 C 28,3 C 21,7 C 47 % 1022,7 hPa 0,0 l/m 2 min 0 min 918 W/m 22,5 km/h (4 Bft) 95,74 %
16.06.2022 15:02 25,6 C 28,3 C 21,7 C 46 % 1022,7 hPa 0,0 l/m 2 min 0 min 917 W/m 16,1 km/h (3 Bft) 93,62 %
16.06.2022 15:04 25,6 C 28,3 C 21,7 C 47 % 1022,7 hPa 0,0 l/m 2 min 0 min 916 W/m 22,5 km/h (4 Bft) 95,65 %
16.06.2022 15:06 25,7 C 28,9 C 21,7 C 48 % 1022,8 hPa 0,0 l/m 2 min 0 min 916 W/m 12,9 km/h (3 Bft) 97,87 %
16.06.2022 15:08 25,8 C 28,3 C 21,7 C 47 % 1022,8 hPa 0,0 l/m 2 min 0 min 912 W/m 12,9 km/h (3 Bft) 97,87 %
16.06.2022 15:10 25,7 C 28,3 C 21,1 C 47 % 1022,8 hPa 0,0 l/m 2 min 0 min 909 W/m 22,5 km/h (4 Bft) 100,00 %
16.06.2022 15:12 25,6 C 28,3 C 21,1 C 47 % 1022,8 hPa 0,0 l/m 2 min 0 min 907 W/m 25,7 km/h (4 Bft) 95,74 %
16.06.2022 15:14 25,6 C 27,8 C 21,1 C 47 % 1022,9 hPa 0,0 l/m 2 min 0 min 899 W/m 29,0 km/h (5 Bft) 97,87 %
16.06.2022 15:16 25,6 C 28,3 C 21,1 C 47 % 1022,9 hPa 0,0 l/m 2 min 0 min 898 W/m 9,7 km/h (2 Bft) 97,83 %
16.06.2022 15:18 25,5 C 28,3 C 21,1 C 48 % 1022,9 hPa 0,0 l/m 2 min 0 min 894 W/m 12,9 km/h (3 Bft) 97,87 %
16.06.2022 15:20 25,5 C 27,8 C 21,7 C 48 % 1022,8 hPa 0,0 l/m 2 min 0 min 895 W/m 25,7 km/h (4 Bft) 95,74 %
16.06.2022 15:22 25,5 C 27,8 C 21,1 C 48 % 1022,9 hPa 0,0 l/m 2 min 0 min 887 W/m 29,0 km/h (5 Bft) 97,87 %
16.06.2022 15:24 25,5 C 27,2 C 21,1 C 48 % 1022,9 hPa 0,0 l/m 2 min 0 min 880 W/m 22,5 km/h (4 Bft) 100,00 %
16.06.2022 15:26 25,6 C 27,2 C 21,7 C 48 % 1023,0 hPa 0,0 l/m 2 min 0 min 878 W/m 25,7 km/h (4 Bft) 100,00 %
16.06.2022 15:28 25,6 C 27,2 C 21,7 C 47 % 1023,0 hPa 0,0 l/m 2 min 2 min 882 W/m 25,7 km/h (4 Bft) 100,00 %
16.06.2022 15:30 25,6 C 27,8 C 21,7 C 47 % 1023,0 hPa 0,0 l/m 2 min 0 min 882 W/m 12,9 km/h (3 Bft) 100,00 %
16.06.2022 15:32 25,6 C 27,2 C 21,1 C 47 % 1023,0 hPa 0,0 l/m 2 min 0 min 882 W/m 6,4 km/h (2 Bft) 68,09 %
16.06.2022 15:34 25,6 C 27,8 C 21,1 C 48 % 1023,0 hPa 0,0 l/m 2 min 0 min 877 W/m 16,1 km/h (3 Bft) 88,37 %
16.06.2022 15:36 25,6 C 27,2 C 21,1 C 47 % 1023,1 hPa 0,0 l/m 2 min 0 min 874 W/m 16,1 km/h (3 Bft) 100,00 %
16.06.2022 15:38 25,4 C 27,2 C 21,1 C 47 % 1023,0 hPa 0,0 l/m 2 min 0 min 871 W/m 12,9 km/h (3 Bft) 100,00 %
16.06.2022 15:40 25,5 C 27,8 C 21,7 C 47 % 1023,0 hPa 0,0 l/m 2 min 0 min 870 W/m 9,7 km/h (2 Bft) 100,00 %
16.06.2022 15:42 25,6 C 27,8 C 21,1 C 47 % 1023,1 hPa 0,0 l/m 2 min 0 min 868 W/m 9,7 km/h (2 Bft) 100,00 %
16.06.2022 15:44 25,6 C 28,3 C 21,7 C 48 % 1023,1 hPa 0,0 l/m 2 min 0 min 864 W/m 19,3 km/h (3 Bft) 100,00 %
16.06.2022 15:46 25,7 C 28,3 C 21,7 C 48 % 1023,1 hPa 0,0 l/m 2 min 0 min 858 W/m 12,9 km/h (3 Bft) 100,00 %
16.06.2022 15:48 25,7 C 27,8 C 21,7 C 48 % 1023,2 hPa 0,0 l/m 2 min 0 min 854 W/m 19,3 km/h (3 Bft) 100,00 %
16.06.2022 15:50 25,6 C 27,8 C 21,7 C 49 % 1023,2 hPa 0,0 l/m 2 min 0 min 848 W/m 19,3 km/h (3 Bft) 100,00 %
16.06.2022 15:52 25,6 C 28,3 C 21,7 C 50 % 1023,1 hPa 0,0 l/m 2 min 0 min 846 W/m 12,9 km/h (3 Bft) 100,00 %
16.06.2022 15:54 25,6 C 28,3 C 21,7 C 48 % 1023,1 hPa 0,0 l/m 2 min 0 min 776 W/m 12,9 km/h (3 Bft) 100,00 %
16.06.2022 15:56 25,6 C 28,3 C 21,7 C 49 % 1023,1 hPa 0,0 l/m 2 min 0 min 830 W/m 19,3 km/h (3 Bft) 100,00 %
16.06.2022 15:58 25,7 C 29,4 C 21,7 C 48 % 1023,1 hPa 0,0 l/m 2 min 0 min 834 W/m 9,7 km/h (2 Bft) 100,00 %
16.06.2022 16:00 25,7 C 28,9 C 21,7 C 48 % 1023,0 hPa 0,0 l/m 2 min 0 min 830 W/m 19,3 km/h (3 Bft) 100,00 %
16.06.2022 16:02 25,7 C 29,4 C 21,7 C 48 % 1023,1 hPa 0,0 l/m 2 min 0 min 835 W/m 16,1 km/h (3 Bft) 97,87 %
16.06.2022 16:04 25,7 C 28,9 C 21,7 C 49 % 1023,1 hPa 0,0 l/m 2 min 0 min 837 W/m 16,1 km/h (3 Bft) 97,83 %
16.06.2022 16:06 25,8 C 30,0 C 21,7 C 49 % 1023,1 hPa 0,0 l/m 2 min 0 min 824 W/m 16,1 km/h (3 Bft) 100,00 %
16.06.2022 16:08 25,8 C 30,0 C 21,7 C 49 % 1023,1 hPa 0,0 l/m 2 min 0 min 815 W/m 16,1 km/h (3 Bft) 97,87 %
16.06.2022 16:10 25,7 C 29,4 C 21,7 C 49 % 1023,1 hPa 0,0 l/m 2 min 0 min 814 W/m 16,1 km/h (3 Bft) 100,00 %
16.06.2022 16:12 25,8 C 30,0 C 22,2 C 48 % 1023,1 hPa 0,0 l/m 2 min 0 min 807 W/m 22,5 km/h (4 Bft) 97,87 %
16.06.2022 16:14 25,7 C 30,0 C 22,2 C 47 % 1023,1 hPa 0,0 l/m 2 min 0 min 806 W/m 19,3 km/h (3 Bft) 97,87 %
16.06.2022 16:16 25,8 C 30,6 C 22,2 C 48 % 1023,1 hPa 0,0 l/m 2 min 0 min 800 W/m 16,1 km/h (3 Bft) 97,83 %
16.06.2022 16:18 25,8 C 30,6 C 21,7 C 47 % 1023,0 hPa 0,0 l/m 2 min 0 min 794 W/m 12,9 km/h (3 Bft) 97,87 %
16.06.2022 16:20 25,8 C 30,6 C 22,2 C 49 % 1023,0 hPa 0,0 l/m 2 min 0 min 789 W/m 12,9 km/h (3 Bft) 97,87 %
16.06.2022 16:22 25,9 C 31,1 C 22,2 C 49 % 1023,1 hPa 0,0 l/m 2 min 0 min 788 W/m 12,9 km/h (3 Bft) 97,87 %
16.06.2022 16:24 25,9 C 30,6 C 22,2 C 48 % 1023,1 hPa 0,0 l/m 2 min 0 min 782 W/m 22,5 km/h (4 Bft) 95,74 %
16.06.2022 16:26 25,8 C 30,6 C 22,2 C 48 % 1023,1 hPa 0,0 l/m 2 min 0 min 782 W/m 12,9 km/h (3 Bft) 97,87 %
16.06.2022 16:28 25,8 C 30,6 C 21,7 C 48 % 1023,0 hPa 0,0 l/m 2 min 0 min 774 W/m 12,9 km/h (3 Bft) 97,83 %
16.06.2022 16:30 25,8 C 30,0 C 21,7 C 49 % 1023,0 hPa 0,0 l/m 2 min 0 min 769 W/m 19,3 km/h (3 Bft) 97,87 %
16.06.2022 16:32 25,8 C 30,0 C 21,7 C 49 % 1022,9 hPa 0,0 l/m 2 min 0 min 766 W/m 19,3 km/h (3 Bft) 95,74 %
16.06.2022 16:34 25,8 C 30,6 C 22,2 C 48 % 1022,9 hPa 0,0 l/m 2 min 0 min 763 W/m 19,3 km/h (3 Bft) 97,87 %
16.06.2022 16:36 25,8 C 30,6 C 22,2 C 49 % 1023,0 hPa 0,0 l/m 2 min 0 min 758 W/m 32,2 km/h (5 Bft) 95,74 %
16.06.2022 16:38 25,8 C 30,6 C 22,2 C 49 % 1022,9 hPa 0,0 l/m 2 min 0 min 754 W/m 16,1 km/h (3 Bft) 95,83 %
16.06.2022 16:40 25,8 C 31,1 C 22,2 C 48 % 1022,9 hPa 0,0 l/m 2 min 0 min 754 W/m 16,1 km/h (3 Bft) 97,83 %
16.06.2022 16:42 25,9 C 31,7 C 22,2 C 49 % 1022,9 hPa 0,0 l/m 2 min 0 min 751 W/m 9,7 km/h (2 Bft) 95,74 %
16.06.2022 16:44 25,9 C 31,1 C 22,2 C 49 % 1022,9 hPa 0,0 l/m 2 min 0 min 744 W/m 19,3 km/h (3 Bft) 95,74 %
16.06.2022 16:46 25,9 C 31,1 C 22,2 C 49 % 1022,9 hPa 0,0 l/m 2 min 0 min 741 W/m 19,3 km/h (3 Bft) 95,74 %
16.06.2022 16:48 25,9 C 31,1 C 22,2 C 48 % 1022,8 hPa 0,0 l/m 2 min 0 min 737 W/m 16,1 km/h (3 Bft) 97,87 %
16.06.2022 16:50 25,8 C 30,6 C 21,7 C 48 % 1022,8 hPa 0,0 l/m 2 min 0 min 735 W/m 9,7 km/h (2 Bft) 97,87 %
16.06.2022 16:52 25,8 C 31,1 C 22,2 C 49 % 1022,8 hPa 0,0 l/m 2 min 0 min 719 W/m 16,1 km/h (3 Bft) 95,65 %
16.06.2022 16:54 25,7 C 30,6 C 22,2 C 47 % 1022,7 hPa 0,0 l/m 2 min 0 min 719 W/m 16,1 km/h (3 Bft) 93,62 %
16.06.2022 16:56 25,7 C 31,1 C 22,2 C 49 % 1022,7 hPa 0,0 l/m 2 min 0 min 716 W/m 9,7 km/h (2 Bft) 97,87 %
16.06.2022 16:58 25,9 C 32,2 C 22,8 C 49 % 1022,7 hPa 0,0 l/m 2 min 0 min 712 W/m 9,7 km/h (2 Bft) 97,87 %
16.06.2022 17:00 26,1 C 32,2 C 22,8 C 48 % 1022,6 hPa 0,0 l/m 2 min 0 min 704 W/m 16,1 km/h (3 Bft) 97,87 %
16.06.2022 17:02 26,2 C 32,2 C 22,8 C 47 % 1022,6 hPa 0,0 l/m 2 min 0 min 694 W/m 16,1 km/h (3 Bft) 95,74 %
16.06.2022 17:04 26,2 C 31,1 C 22,8 C 47 % 1022,6 hPa 0,0 l/m 2 min 0 min 700 W/m 22,5 km/h (4 Bft) 95,65 %
16.06.2022 17:06 26,2 C 31,1 C 22,8 C 47 % 1022,6 hPa 0,0 l/m 2 min 0 min 699 W/m 9,7 km/h (2 Bft) 97,87 %
16.06.2022 17:08 26,2 C 31,7 C 22,8 C 48 % 1022,6 hPa 0,0 l/m 2 min 0 min 692 W/m 12,9 km/h (3 Bft) 95,74 %
16.06.2022 17:10 26,3 C 31,7 C 22,8 C 47 % 1022,6 hPa 0,0 l/m 2 min 0 min 689 W/m 12,9 km/h (3 Bft) 95,92 %
16.06.2022 17:12 26,3 C 31,7 C 22,8 C 46 % 1022,6 hPa 0,0 l/m 2 min 0 min 671 W/m 12,9 km/h (3 Bft) 95,74 %
16.06.2022 17:14 26,3 C 31,7 C 22,8 C 47 % 1022,6 hPa 0,0 l/m 2 min 0 min 664 W/m 16,1 km/h (3 Bft) 100,00 %
16.06.2022 17:16 26,3 C 31,7 C 22,8 C 47 % 1022,5 hPa 0,0 l/m 2 min 0 min 670 W/m 12,9 km/h (3 Bft) 93,48 %
16.06.2022 17:18 26,2 C 31,1 C 22,8 C 46 % 1022,6 hPa 0,0 l/m 2 min 0 min 669 W/m 22,5 km/h (4 Bft) 93,62 %
16.06.2022 17:20 26,2 C 31,1 C 22,8 C 47 % 1022,6 hPa 0,0 l/m 2 min 0 min 663 W/m 9,7 km/h (2 Bft) 97,87 %
16.06.2022 17:22 26,2 C 31,7 C 22,8 C 46 % 1022,6 hPa 0,0 l/m 2 min 0 min 656 W/m 12,9 km/h (3 Bft) 97,87 %
16.06.2022 17:24 26,2 C 31,7 C 22,8 C 47 % 1022,6 hPa 0,0 l/m 2 min 0 min 652 W/m 16,1 km/h (3 Bft) 97,87 %
16.06.2022 17:26 26,2 C 31,1 C 22,8 C 47 % 1022,7 hPa 0,0 l/m 2 min 0 min 642 W/m 12,9 km/h (3 Bft) 97,83 %
16.06.2022 17:28 26,1 C 30,6 C 22,2 C 47 % 1022,7 hPa 0,0 l/m 2 min 0 min 637 W/m 16,1 km/h (3 Bft) 95,74 %
16.06.2022 17:30 26,1 C 31,1 C 22,2 C 46 % 1022,7 hPa 0,0 l/m 2 min 0 min 626 W/m 16,1 km/h (3 Bft) 100,00 %
16.06.2022 17:32 26,1 C 30,6 C 22,2 C 47 % 1022,6 hPa 0,0 l/m 2 min 0 min 627 W/m 12,9 km/h (3 Bft) 100,00 %
16.06.2022 17:34 26,0 C 30,6 C 22,2 C 47 % 1022,7 hPa 0,0 l/m 2 min 0 min 627 W/m 32,2 km/h (5 Bft) 100,00 %
16.06.2022 17:36 25,8 C 29,4 C 22,2 C 46 % 1022,7 hPa 0,0 l/m 2 min 0 min 621 W/m 22,5 km/h (4 Bft) 93,62 %
16.06.2022 17:38 25,7 C 30,0 C 22,2 C 47 % 1022,7 hPa 0,0 l/m 2 min 0 min 613 W/m 9,7 km/h (2 Bft) 91,49 %
16.06.2022 17:40 25,8 C 31,1 C 22,2 C 47 % 1022,7 hPa 0,0 l/m 2 min 0 min 606 W/m 6,4 km/h (2 Bft) 100,00 %
16.06.2022 17:42 25,9 C 31,1 C 22,8 C 47 % 1022,7 hPa 0,0 l/m 2 min 0 min 604 W/m 12,9 km/h (3 Bft) 100,00 %
16.06.2022 17:44 26,0 C 31,7 C 22,8 C 47 % 1022,7 hPa 0,0 l/m 2 min 0 min 594 W/m 9,7 km/h (2 Bft) 95,74 %
16.06.2022 17:46 26,0 C 31,7 C 22,8 C 47 % 1022,7 hPa 0,0 l/m 2 min 0 min 589 W/m 9,7 km/h (2 Bft) 95,74 %
16.06.2022 17:48 26,1 C 32,2 C 22,8 C 47 % 1022,7 hPa 0,0 l/m 2 min 0 min 586 W/m 6,4 km/h (2 Bft) 93,62 %
16.06.2022 17:50 26,2 C 32,2 C 22,8 C 47 % 1022,7 hPa 0,0 l/m 2 min 0 min 583 W/m 16,1 km/h (3 Bft) 97,83 %
16.06.2022 17:52 26,1 C 31,1 C 22,2 C 46 % 1022,7 hPa 0,0 l/m 2 min 0 min 577 W/m 12,9 km/h (3 Bft) 97,87 %
16.06.2022 17:54 26,0 C 31,1 C 22,2 C 47 % 1022,8 hPa 0,0 l/m 2 min 0 min 567 W/m 6,4 km/h (2 Bft) 95,74 %
16.06.2022 17:56 26,0 C 31,1 C 22,2 C 45 % 1022,8 hPa 0,0 l/m 2 min 0 min 565 W/m 25,7 km/h (4 Bft) 95,74 %
16.06.2022 17:58 26,0 C 31,1 C 22,2 C 46 % 1022,7 hPa 0,0 l/m 2 min 0 min 562 W/m 9,7 km/h (2 Bft) 97,87 %
16.06.2022 18:00 26,1 C 31,7 C 22,8 C 46 % 1022,7 hPa 0,0 l/m 2 min 0 min 556 W/m 9,7 km/h (2 Bft) 95,74 %
16.06.2022 18:02 26,1 C 32,2 C 22,8 C 46 % 1022,7 hPa 0,0 l/m 2 min 0 min 550 W/m 16,1 km/h (3 Bft) 97,83 %
16.06.2022 18:04 26,2 C 32,2 C 23,3 C 47 % 1022,7 hPa 0,0 l/m 2 min 0 min 547 W/m 6,4 km/h (2 Bft) 97,87 %
16.06.2022 18:07 26,3 C 32,2 C 23,3 C 46 % 1022,7 hPa 0,0 l/m 3 min 0 min 540 W/m 16,1 km/h (3 Bft) 95,77 %
16.06.2022 18:08 26,3 C 32,2 C 22,8 C 47 % 1022,7 hPa 0,0 l/m 1 min 0 min 534 W/m 12,9 km/h (3 Bft) 100,00 %
16.06.2022 18:10 26,3 C 32,2 C 22,8 C 47 % 1022,7 hPa 0,0 l/m 2 min 0 min 531 W/m 12,9 km/h (3 Bft) 95,74 %
16.06.2022 18:12 26,5 C 32,8 C 23,3 C 47 % 1022,7 hPa 0,0 l/m 2 min 0 min 522 W/m 6,4 km/h (2 Bft) 95,74 %
16.06.2022 18:14 26,6 C 32,8 C 23,3 C 47 % 1022,7 hPa 0,0 l/m 2 min 0 min 517 W/m 12,9 km/h (3 Bft) 91,30 %
16.06.2022 18:16 26,6 C 32,2 C 22,8 C 47 % 1022,8 hPa 0,0 l/m 2 min 0 min 505 W/m 12,9 km/h (3 Bft) 91,49 %
16.06.2022 18:18 26,6 C 32,2 C 22,8 C 48 % 1022,8 hPa 0,0 l/m 2 min 0 min 499 W/m 9,7 km/h (2 Bft) 93,62 %
16.06.2022 18:20 26,6 C 31,7 C 22,8 C 47 % 1022,8 hPa 0,0 l/m 2 min 0 min 479 W/m 6,4 km/h (2 Bft) 95,74 %
16.06.2022 18:22 26,4 C 31,7 C 22,8 C 47 % 1022,9 hPa 0,0 l/m 2 min 0 min 471 W/m 9,7 km/h (2 Bft) 95,74 %
16.06.2022 18:24 26,4 C 32,2 C 22,8 C 47 % 1022,8 hPa 0,0 l/m 2 min 0 min 477 W/m 9,7 km/h (2 Bft) 95,74 %
16.06.2022 18:26 26,5 C 32,2 C 22,8 C 47 % 1022,8 hPa 0,0 l/m 2 min 0 min 467 W/m 9,7 km/h (2 Bft) 93,48 %
16.06.2022 18:28 26,6 C 32,2 C 22,8 C 47 % 1022,8 hPa 0,0 l/m 2 min 0 min 456 W/m 22,5 km/h (4 Bft) 95,74 %
16.06.2022 18:30 26,5 C 32,2 C 22,8 C 47 % 1022,8 hPa 0,0 l/m 2 min 0 min 448 W/m 6,4 km/h (2 Bft) 95,74 %
16.06.2022 18:32 26,5 C 31,7 C 22,8 C 46 % 1022,9 hPa 0,0 l/m 2 min 0 min 459 W/m 16,1 km/h (3 Bft) 95,74 %
16.06.2022 18:34 26,4 C 30,6 C 22,8 C 46 % 1022,8 hPa 0,0 l/m 2 min 0 min 440 W/m 6,4 km/h (2 Bft) 87,23 %
16.06.2022 18:36 26,3 C 31,1 C 22,8 C 47 % 1022,8 hPa 0,0 l/m 2 min 0 min 449 W/m 9,7 km/h (2 Bft) 74,47 %
16.06.2022 18:38 26,2 C 31,1 C 22,8 C 47 % 1022,8 hPa 0,0 l/m 2 min 0 min 438 W/m 12,9 km/h (3 Bft) 84,78 %
16.06.2022 18:40 26,2 C 31,7 C 22,8 C 47 % 1022,8 hPa 0,0 l/m 2 min 0 min 393 W/m 9,7 km/h (2 Bft) 87,23 %
16.06.2022 18:42 26,2 C 30,6 C 22,8 C 47 % 1022,7 hPa 0,0 l/m 2 min 0 min 311 W/m 22,5 km/h (4 Bft) 95,74 %
16.06.2022 18:44 26,2 C 30,0 C 22,8 C 48 % 1022,8 hPa 0,0 l/m 2 min 0 min 284 W/m 6,4 km/h (2 Bft) 100,00 %
16.06.2022 18:46 26,1 C 28,9 C 22,2 C 47 % 1022,7 hPa 0,0 l/m 2 min 0 min 269 W/m 12,9 km/h (3 Bft) 97,87 %
16.06.2022 18:48 25,9 C 27,8 C 21,7 C 48 % 1022,7 hPa 0,0 l/m 0 min 0 min 219 W/m 19,3 km/h (3 Bft) 97,87 %
16.06.2022 18:50 25,7 C 27,2 C 21,7 C 49 % 1022,7 hPa 0,0 l/m 2 min 0 min 231 W/m 9,7 km/h (2 Bft) 100,00 %
16.06.2022 18:52 25,5 C 27,2 C 21,7 C 49 % 1022,7 hPa 0,0 l/m 2 min 0 min 241 W/m 9,7 km/h (2 Bft) 100,00 %
16.06.2022 18:54 25,3 C 27,2 C 21,7 C 49 % 1022,7 hPa 0,0 l/m 2 min 0 min 279 W/m 6,4 km/h (2 Bft) 97,87 %
16.06.2022 18:56 25,3 C 27,2 C 21,7 C 49 % 1022,6 hPa 0,0 l/m 2 min 0 min 297 W/m 3,2 km/h (1 Bft) 100,00 %
16.06.2022 18:58 25,2 C 26,7 C 21,1 C 49 % 1022,6 hPa 0,0 l/m 2 min 0 min 242 W/m 9,7 km/h (2 Bft) 100,00 %
16.06.2022 19:00 25,1 C 26,1 C 21,1 C 49 % 1022,6 hPa 0,0 l/m 2 min 0 min 218 W/m 16,1 km/h (3 Bft) 100,00 %
16.06.2022 19:02 25,1 C 25,6 C 21,1 C 49 % 1022,5 hPa 0,0 l/m 0 min 0 min 177 W/m 3,2 km/h (1 Bft) 97,83 %
16.06.2022 19:04 24,9 C 25,0 C 21,1 C 50 % 1022,5 hPa 0,0 l/m 0 min 0 min 172 W/m 9,7 km/h (2 Bft) 100,00 %
16.06.2022 19:06 24,8 C 25,0 C 21,1 C 50 % 1022,5 hPa 0,0 l/m 0 min 0 min 165 W/m 6,4 km/h (2 Bft) 100,00 %
16.06.2022 19:08 24,7 C 25,0 C 21,1 C 51 % 1022,5 hPa 0,0 l/m 0 min 0 min 164 W/m 9,7 km/h (2 Bft) 97,87 %
16.06.2022 19:10 24,7 C 25,0 C 21,1 C 51 % 1022,6 hPa 0,0 l/m 0 min 0 min 150 W/m 6,4 km/h (2 Bft) 100,00 %
16.06.2022 19:12 24,7 C 25,0 C 21,1 C 51 % 1022,6 hPa 0,0 l/m 0 min 0 min 143 W/m 16,1 km/h (3 Bft) 93,62 %
16.06.2022 19:14 24,6 C 24,4 C 20,6 C 51 % 1022,6 hPa 0,0 l/m 0 min 0 min 142 W/m 9,7 km/h (2 Bft) 97,83 %
16.06.2022 19:16 24,6 C 24,4 C 20,6 C 50 % 1022,6 hPa 0,0 l/m 0 min 0 min 148 W/m 9,7 km/h (2 Bft) 97,87 %
16.06.2022 19:18 24,4 C 24,4 C 20,6 C 50 % 1022,6 hPa 0,0 l/m 0 min 0 min 145 W/m 6,4 km/h (2 Bft) 95,74 %
16.06.2022 19:20 24,4 C 23,9 C 20,6 C 51 % 1022,6 hPa 0,0 l/m 0 min 0 min 141 W/m 12,9 km/h (3 Bft) 97,87 %
16.06.2022 19:22 24,4 C 23,9 C 20,6 C 51 % 1022,6 hPa 0,0 l/m 0 min 0 min 147 W/m 16,1 km/h (3 Bft) 97,87 %
16.06.2022 19:24 24,3 C 23,9 C 20,6 C 51 % 1022,5 hPa 0,0 l/m 0 min 0 min 170 W/m 16,1 km/h (3 Bft) 97,87 %
16.06.2022 19:26 24,2 C 23,9 C 20,6 C 51 % 1022,5 hPa 0,0 l/m 2 min 0 min 211 W/m 6,4 km/h (2 Bft) 97,83 %
16.06.2022 19:28 24,2 C 24,4 C 20,6 C 51 % 1022,6 hPa 0,0 l/m 2 min 0 min 292 W/m 6,4 km/h (2 Bft) 95,74 %
16.06.2022 19:30 24,2 C 24,4 C 20,6 C 52 % 1022,6 hPa 0,0 l/m 2 min 0 min 243 W/m 3,2 km/h (1 Bft) 95,74 %
16.06.2022 19:32 24,3 C 24,4 C 20,6 C 51 % 1022,5 hPa 0,0 l/m 2 min 0 min 202 W/m 6,4 km/h (2 Bft) 97,87 %
16.06.2022 19:34 24,3 C 24,4 C 20,6 C 50 % 1022,5 hPa 0,0 l/m 0 min 0 min 154 W/m 9,7 km/h (2 Bft) 97,87 %
16.06.2022 19:36 24,3 C 24,4 C 20,6 C 50 % 1022,6 hPa 0,0 l/m 0 min 0 min 145 W/m 6,4 km/h (2 Bft) 97,87 %
16.06.2022 19:38 24,3 C 24,4 C 20,0 C 51 % 1022,6 hPa 0,0 l/m 0 min 0 min 132 W/m 9,7 km/h (2 Bft) 97,83 %
16.06.2022 19:40 24,2 C 23,9 C 20,0 C 50 % 1022,6 hPa 0,0 l/m 0 min 0 min 121 W/m 12,9 km/h (3 Bft) 97,87 %
16.06.2022 19:42 24,1 C 23,9 C 20,0 C 50 % 1022,6 hPa 0,0 l/m 0 min 0 min 110 W/m 12,9 km/h (3 Bft) 97,87 %
16.06.2022 19:44 24,1 C 23,9 C 20,0 C 50 % 1022,6 hPa 0,0 l/m 0 min 0 min 102 W/m 6,4 km/h (2 Bft) 95,74 %
16.06.2022 19:46 24,0 C 23,9 C 20,0 C 51 % 1022,6 hPa 0,0 l/m 0 min 0 min 95 W/m 6,4 km/h (2 Bft) 93,62 %
16.06.2022 19:48 23,9 C 23,3 C 20,0 C 51 % 1022,6 hPa 0,0 l/m 0 min 0 min 95 W/m 6,4 km/h (2 Bft) 97,87 %
16.06.2022 19:50 23,9 C 23,3 C 20,0 C 52 % 1022,5 hPa 0,0 l/m 0 min 0 min 95 W/m 12,9 km/h (3 Bft) 97,83 %
16.06.2022 19:52 23,9 C 23,3 C 19,4 C 52 % 1022,4 hPa 0,0 l/m 0 min 0 min 95 W/m 12,9 km/h (3 Bft) 97,87 %
16.06.2022 19:54 23,8 C 23,3 C 19,4 C 52 % 1022,4 hPa 0,0 l/m 0 min 0 min 95 W/m 3,2 km/h (1 Bft) 93,62 %
16.06.2022 19:56 23,8 C 23,3 C 19,4 C 52 % 1022,5 hPa 0,0 l/m 0 min 0 min 97 W/m 12,9 km/h (3 Bft) 100,00 %
16.06.2022 19:58 23,7 C 23,3 C 19,4 C 53 % 1022,6 hPa 0,0 l/m 0 min 0 min 98 W/m 6,4 km/h (2 Bft) 100,00 %
16.06.2022 20:00 23,7 C 23,3 C 19,4 C 53 % 1022,6 hPa 0,0 l/m 0 min 0 min 99 W/m 3,2 km/h (1 Bft) 95,65 %
16.06.2022 20:02 23,7 C 23,3 C 19,4 C 53 % 1022,6 hPa 0,0 l/m 0 min 0 min 93 W/m 6,4 km/h (2 Bft) 97,87 %
16.06.2022 20:04 23,7 C 23,3 C 19,4 C 54 % 1022,7 hPa 0,0 l/m 0 min 0 min 87 W/m 6,4 km/h (2 Bft) 97,87 %
16.06.2022 20:06 23,6 C 22,8 C 19,4 C 54 % 1022,6 hPa 0,0 l/m 0 min 0 min 83 W/m 3,2 km/h (1 Bft) 100,00 %
16.06.2022 20:08 23,6 C 22,8 C 19,4 C 54 % 1022,6 hPa 0,0 l/m 0 min 0 min 83 W/m 3,2 km/h (1 Bft) 95,74 %
16.06.2022 20:10 23,6 C 22,8 C 19,4 C 55 % 1022,7 hPa 0,0 l/m 0 min 0 min 85 W/m 6,4 km/h (2 Bft) 97,87 %
16.06.2022 20:12 23,5 C 22,8 C 19,4 C 55 % 1022,7 hPa 0,0 l/m 0 min 0 min 92 W/m 6,4 km/h (2 Bft) 97,83 %
16.06.2022 20:14 23,5 C 22,8 C 19,4 C 55 % 1022,8 hPa 0,0 l/m 0 min 0 min 101 W/m 9,7 km/h (2 Bft) 97,87 %
16.06.2022 20:16 23,4 C 22,8 C 19,4 C 55 % 1022,9 hPa 0,0 l/m 2 min 0 min 109 W/m 9,7 km/h (2 Bft) 97,87 %
16.06.2022 20:18 23,4 C 22,8 C 19,4 C 55 % 1022,9 hPa 0,0 l/m 2 min 0 min 114 W/m 6,4 km/h (2 Bft) 97,87 %
16.06.2022 20:20 23,4 C 22,8 C 19,4 C 55 % 1022,9 hPa 0,0 l/m 2 min 0 min 111 W/m 9,7 km/h (2 Bft) 97,87 %
16.06.2022 20:22 23,4 C 22,8 C 19,4 C 56 % 1023,0 hPa 0,0 l/m 2 min 0 min 105 W/m 6,4 km/h (2 Bft) 97,87 %
16.06.2022 20:24 23,4 C 22,8 C 19,4 C 55 % 1023,0 hPa 0,0 l/m 2 min 0 min 99 W/m 6,4 km/h (2 Bft) 97,87 %
16.06.2022 20:26 23,4 C 22,8 C 19,4 C 55 % 1023,0 hPa 0,0 l/m 2 min 0 min 100 W/m 6,4 km/h (2 Bft) 97,62 %
16.06.2022 20:28 23,4 C 22,8 C 19,4 C 55 % 1023,1 hPa 0,0 l/m 2 min 0 min 96 W/m 12,9 km/h (3 Bft) 97,96 %
16.06.2022 20:30 23,4 C 22,8 C 19,4 C 54 % 1023,2 hPa 0,0 l/m 0 min 0 min 87 W/m 6,4 km/h (2 Bft) 97,96 %
16.06.2022 20:36 23,3 C 22,8 C 19,4 C 55 % 1023,1 hPa 0,0 l/m 0 min 0 min 71 W/m 12,9 km/h (3 Bft) 97,18 %
16.06.2022 20:38 23,3 C 22,8 C 18,9 C 55 % 1023,1 hPa 0,0 l/m 0 min 0 min 69 W/m 9,7 km/h (2 Bft) 97,87 %
16.06.2022 20:40 23,3 C 22,8 C 18,9 C 56 % 1023,0 hPa 0,0 l/m 0 min 0 min 68 W/m 9,7 km/h (2 Bft) 95,74 %
16.06.2022 20:42 23,2 C 22,2 C 18,9 C 56 % 1023,0 hPa 0,0 l/m 0 min 0 min 69 W/m 9,7 km/h (2 Bft) 97,87 %
16.06.2022 20:44 23,2 C 22,2 C 18,9 C 56 % 1023,0 hPa 0,0 l/m 0 min 0 min 69 W/m 9,7 km/h (2 Bft) 100,00 %
16.06.2022 20:46 23,1 C 22,2 C 18,9 C 57 % 1023,0 hPa 0,0 l/m 0 min 0 min 67 W/m 6,4 km/h (2 Bft) 100,00 %
16.06.2022 20:48 23,1 C 22,2 C 18,9 C 56 % 1023,0 hPa 0,0 l/m 0 min 0 min 66 W/m 6,4 km/h (2 Bft) 100,00 %
16.06.2022 20:50 23,1 C 22,2 C 18,9 C 57 % 1023,0 hPa 0,0 l/m 0 min 0 min 63 W/m 6,4 km/h (2 Bft) 97,87 %
16.06.2022 20:52 23,1 C 22,2 C 18,9 C 57 % 1023,0 hPa 0,0 l/m 0 min 0 min 58 W/m 3,2 km/h (1 Bft) 97,87 %
16.06.2022 20:54 23,0 C 22,2 C 18,9 C 57 % 1023,0 hPa 0,0 l/m 0 min 0 min 48 W/m 6,4 km/h (2 Bft) 100,00 %
16.06.2022 20:56 23,0 C 22,2 C 18,9 C 57 % 1023,0 hPa 0,0 l/m 0 min 0 min 39 W/m 9,7 km/h (2 Bft) 100,00 %
16.06.2022 20:58 22,9 C 22,2 C 18,3 C 57 % 1023,0 hPa 0,0 l/m 0 min 0 min 31 W/m 6,4 km/h (2 Bft) 100,00 %
16.06.2022 21:00 22,9 C 21,7 C 18,3 C 57 % 1023,0 hPa 0,0 l/m 0 min 0 min 24 W/m 3,2 km/h (1 Bft) 97,83 %
16.06.2022 21:02 22,8 C 21,7 C 18,3 C 57 % 1022,9 hPa 0,0 l/m 0 min 0 min 21 W/m 6,4 km/h (2 Bft) 97,87 %
16.06.2022 21:04 22,7 C 21,7 C 18,3 C 57 % 1022,9 hPa 0,0 l/m 0 min 0 min 21 W/m 9,7 km/h (2 Bft) 97,87 %
16.06.2022 21:06 22,6 C 21,7 C 18,3 C 56 % 1022,9 hPa 0,0 l/m 0 min 0 min 17 W/m 6,4 km/h (2 Bft) 97,87 %
16.06.2022 21:08 22,6 C 21,7 C 18,3 C 57 % 1022,9 hPa 0,0 l/m 0 min 0 min 13 W/m 6,4 km/h (2 Bft) 97,87 %
16.06.2022 21:10 22,5 C 21,7 C 18,3 C 57 % 1022,9 hPa 0,0 l/m 0 min 0 min 12 W/m 3,2 km/h (1 Bft) 97,67 %
16.06.2022 21:12 22,4 C 21,1 C 17,8 C 56 % 1022,8 hPa 0,0 l/m 0 min 0 min 12 W/m 3,2 km/h (1 Bft) 95,74 %
16.06.2022 21:14 22,4 C 21,1 C 17,8 C 57 % 1022,8 hPa 0,0 l/m 0 min 0 min 12 W/m 3,2 km/h (1 Bft) 91,30 %
16.06.2022 21:16 22,3 C 21,1 C 17,8 C 57 % 1022,8 hPa 0,0 l/m 0 min 0 min 11 W/m 3,2 km/h (1 Bft) 97,87 %
16.06.2022 21:18 22,3 C 21,1 C 17,8 C 57 % 1022,8 hPa 0,0 l/m 0 min 0 min 11 W/m 3,2 km/h (1 Bft) 97,87 %
16.06.2022 21:20 22,2 C 21,1 C 17,8 C 58 % 1022,9 hPa 0,0 l/m 0 min 0 min 11 W/m 6,4 km/h (2 Bft) 97,87 %
16.06.2022 21:22 22,2 C 21,1 C 17,8 C 58 % 1022,9 hPa 0,0 l/m 0 min 0 min 11 W/m 3,2 km/h (1 Bft) 97,87 %
16.06.2022 21:24 22,2 C 21,1 C 17,8 C 58 % 1023,0 hPa 0,0 l/m 0 min 0 min 11 W/m 3,2 km/h (1 Bft) 95,74 %
16.06.2022 21:26 22,1 C 21,1 C 17,8 C 58 % 1023,0 hPa 0,0 l/m 0 min 0 min 11 W/m 3,2 km/h (1 Bft) 97,83 %
16.06.2022 21:28 22,1 C 20,6 C 17,8 C 58 % 1023,1 hPa 0,0 l/m 0 min 0 min 11 W/m 0,0 km/h (0 Bft) 97,87 %
16.06.2022 21:30 22,0 C 20,6 C 17,8 C 58 % 1023,0 hPa 0,0 l/m 0 min 0 min 11 W/m 3,2 km/h (1 Bft) 97,87 %
16.06.2022 21:32 22,0 C 20,6 C 17,2 C 60 % 1023,0 hPa 0,0 l/m 0 min 0 min 11 W/m 3,2 km/h (1 Bft) 95,74 %
16.06.2022 21:34 21,9 C 20,6 C 17,2 C 60 % 1023,0 hPa 0,0 l/m 0 min 0 min 11 W/m 0,0 km/h (0 Bft) 97,87 %
16.06.2022 21:36 21,9 C 20,6 C 17,2 C 61 % 1023,0 hPa 0,0 l/m 0 min 0 min 10 W/m 0,0 km/h (0 Bft) 95,65 %
16.06.2022 21:38 21,9 C 20,6 C 17,2 C 60 % 1023,0 hPa 0,0 l/m 0 min 0 min 9 W/m 3,2 km/h (1 Bft) 97,87 %
16.06.2022 21:40 21,9 C 20,6 C 17,2 C 60 % 1023,1 hPa 0,0 l/m 0 min 0 min 9 W/m 3,2 km/h (1 Bft) 97,87 %
16.06.2022 21:42 21,9 C 20,6 C 17,2 C 61 % 1023,1 hPa 0,0 l/m 0 min 0 min 7 W/m 3,2 km/h (1 Bft) 97,87 %
16.06.2022 21:44 21,8 C 20,0 C 16,7 C 60 % 1023,0 hPa 0,0 l/m 0 min 0 min 6 W/m 3,2 km/h (1 Bft) 97,87 %
16.06.2022 21:46 21,8 C 20,0 C 16,7 C 60 % 1023,0 hPa 0,0 l/m 0 min 0 min 3 W/m 3,2 km/h (1 Bft) 97,87 %
16.06.2022 21:48 21,8 C 20,0 C 16,7 C 61 % 1023,0 hPa 0,0 l/m 0 min 0 min 0 W/m 0,0 km/h (0 Bft) 97,83 %
16.06.2022 21:50 21,8 C 20,0 C 16,7 C 61 % 1023,1 hPa 0,0 l/m 0 min 0 min 0 W/m 3,2 km/h (1 Bft) 95,74 %
16.06.2022 21:52 21,7 C 20,0 C 16,7 C 61 % 1023,1 hPa 0,0 l/m 0 min 0 min 0 W/m 3,2 km/h (1 Bft) 93,62 %
16.06.2022 21:54 21,7 C 20,0 C 16,7 C 62 % 1023,2 hPa 0,0 l/m 0 min 0 min 0 W/m 0,0 km/h (0 Bft) 97,87 %
16.06.2022 21:56 21,7 C 20,0 C 16,7 C 63 % 1023,2 hPa 0,0 l/m 0 min 0 min 0 W/m 0,0 km/h (0 Bft) 95,74 %
16.06.2022 21:58 21,7 C 19,4 C 16,1 C 64 % 1023,2 hPa 0,0 l/m 0 min 0 min 0 W/m 0,0 km/h (0 Bft) 97,87 %
16.06.2022 22:00 21,6 C 19,4 C 16,1 C 64 % 1023,2 hPa 0,0 l/m 0 min 0 min 0 W/m 0,0 km/h (0 Bft) 97,83 %
16.06.2022 22:02 21,6 C 19,4 C 16,1 C 65 % 1023,3 hPa 0,0 l/m 0 min 0 min 0 W/m 0,0 km/h (0 Bft) 95,74 %
16.06.2022 22:04 21,5 C 19,4 C 16,1 C 64 % 1023,4 hPa 0,0 l/m 0 min 0 min 0 W/m 3,2 km/h (1 Bft) 97,87 %
16.06.2022 22:06 21,4 C 19,4 C 16,1 C 65 % 1023,6 hPa 0,0 l/m 0 min 0 min 0 W/m 0,0 km/h (0 Bft) 93,62 %
16.06.2022 22:08 21,4 C 19,4 C 16,1 C 65 % 1023,6 hPa 0,0 l/m 0 min 0 min 0 W/m 0,0 km/h (0 Bft) 93,62 %
16.06.2022 22:10 21,3 C 19,4 C 16,1 C 65 % 1023,5 hPa 0,0 l/m 0 min 0 min 0 W/m 0,0 km/h (0 Bft) 95,74 %
16.06.2022 22:12 21,2 C 18,9 C 15,6 C 64 % 1023,5 hPa 0,0 l/m 0 min 0 min 0 W/m 0,0 km/h (0 Bft) 93,48 %
16.06.2022 22:14 21,2 C 18,9 C 15,6 C 65 % 1023,5 hPa 0,0 l/m 0 min 0 min 0 W/m 0,0 km/h (0 Bft) 95,74 %
16.06.2022 22:16 21,1 C 18,9 C 15,6 C 66 % 1023,6 hPa 0,0 l/m 0 min 0 min 0 W/m 0,0 km/h (0 Bft) 95,74 %
16.06.2022 22:18 21,1 C 18,9 C 15,6 C 67 % 1023,5 hPa 0,0 l/m 0 min 0 min 0 W/m 0,0 km/h (0 Bft) 95,74 %
16.06.2022 22:20 20,9 C 18,9 C 15,6 C 68 % 1023,6 hPa 0,0 l/m 0 min 0 min 0 W/m 0,0 km/h (0 Bft) 93,62 %
16.06.2022 22:22 20,9 C 18,9 C 15,6 C 68 % 1023,6 hPa 0,0 l/m 0 min 0 min 0 W/m 0,0 km/h (0 Bft) 95,74 %
16.06.2022 22:24 20,8 C 18,9 C 15,6 C 68 % 1023,7 hPa 0,0 l/m 0 min 0 min 0 W/m 0,0 km/h (0 Bft) 95,65 %
16.06.2022 22:26 20,7 C 18,9 C 15,6 C 68 % 1023,7 hPa 0,0 l/m 0 min 0 min 0 W/m 0,0 km/h (0 Bft) 95,74 %
16.06.2022 22:28 20,6 C 18,3 C 15,6 C 69 % 1023,7 hPa 0,0 l/m 0 min 0 min 0 W/m 0,0 km/h (0 Bft) 95,74 %
16.06.2022 22:30 20,5 C 18,3 C 15,0 C 69 % 1023,6 hPa 0,0 l/m 0 min 0 min 0 W/m 0,0 km/h (0 Bft) 95,74 %
16.06.2022 22:32 20,4 C 18,3 C 15,0 C 70 % 1023,6 hPa 0,0 l/m 0 min 0 min 0 W/m 0,0 km/h (0 Bft) 95,74 %
16.06.2022 22:34 20,3 C 18,3 C 15,0 C 70 % 1023,6 hPa 0,0 l/m 0 min 0 min 0 W/m 0,0 km/h (0 Bft) 95,74 %
16.06.2022 22:36 20,3 C 18,3 C 15,0 C 71 % 1023,7 hPa 0,0 l/m 0 min 0 min 0 W/m 0,0 km/h (0 Bft) 97,83 %
16.06.2022 22:38 20,2 C 18,3 C 15,0 C 71 % 1023,6 hPa 0,0 l/m 0 min 0 min 0 W/m 0,0 km/h (0 Bft) 95,74 %
16.06.2022 22:40 20,1 C 18,3 C 15,0 C 72 % 1023,6 hPa 0,0 l/m 0 min 0 min 0 W/m 0,0 km/h (0 Bft) 95,74 %
16.06.2022 22:42 20,1 C 18,3 C 15,0 C 71 % 1023,7 hPa 0,0 l/m 0 min 0 min 0 W/m 0,0 km/h (0 Bft) 97,87 %
16.06.2022 22:44 20,0 C 18,3 C 15,0 C 70 % 1023,7 hPa 0,0 l/m 0 min 0 min 0 W/m 0,0 km/h (0 Bft) 100,00 %
16.06.2022 22:46 19,9 C 18,3 C 15,0 C 70 % 1023,8 hPa 0,0 l/m 0 min 0 min 0 W/m 0,0 km/h (0 Bft) 100,00 %
16.06.2022 22:48 19,8 C 18,3 C 15,0 C 69 % 1023,8 hPa 0,0 l/m 0 min 0 min 0 W/m 0,0 km/h (0 Bft) 100,00 %
16.06.2022 22:50 19,8 C 18,3 C 15,0 C 69 % 1023,8 hPa 0,0 l/m 0 min 0 min 0 W/m 0,0 km/h (0 Bft) 97,87 %
16.06.2022 22:52 19,7 C 18,3 C 15,0 C 70 % 1023,9 hPa 0,0 l/m 0 min 0 min 0 W/m 0,0 km/h (0 Bft) 100,00 %
16.06.2022 22:54 19,7 C 17,8 C 15,0 C 70 % 1023,9 hPa 0,0 l/m 0 min 0 min 0 W/m 0,0 km/h (0 Bft) 100,00 %
16.06.2022 22:56 19,6 C 17,8 C 15,0 C 71 % 1023,9 hPa 0,0 l/m 0 min 0 min 0 W/m 0,0 km/h (0 Bft) 100,00 %
16.06.2022 22:58 19,6 C 17,8 C 15,0 C 71 % 1023,9 hPa 0,0 l/m 0 min 0 min 0 W/m 0,0 km/h (0 Bft) 95,74 %
16.06.2022 23:00 19,6 C 17,8 C 15,0 C 72 % 1024,0 hPa 0,0 l/m 0 min 0 min 0 W/m 0,0 km/h (0 Bft) 100,00 %
16.06.2022 23:02 19,5 C 17,8 C 14,4 C 72 % 1023,9 hPa 0,0 l/m 0 min 0 min 0 W/m 0,0 km/h (0 Bft) 97,87 %
16.06.2022 23:04 19,4 C 17,8 C 14,4 C 72 % 1023,9 hPa 0,0 l/m 0 min 0 min 0 W/m 0,0 km/h (0 Bft) 100,00 %
16.06.2022 23:06 19,4 C 17,8 C 14,4 C 72 % 1023,9 hPa 0,0 l/m 0 min 0 min 0 W/m 0,0 km/h (0 Bft) 97,87 %
16.06.2022 23:08 19,3 C 17,8 C 14,4 C 72 % 1023,8 hPa 0,0 l/m 0 min 0 min 0 W/m 0,0 km/h (0 Bft) 100,00 %
16.06.2022 23:10 19,3 C 17,8 C 14,4 C 72 % 1023,8 hPa 0,0 l/m 0 min 0 min 0 W/m 0,0 km/h (0 Bft) 100,00 %
16.06.2022 23:12 19,3 C 17,8 C 14,4 C 73 % 1023,8 hPa 0,0 l/m 0 min 0 min 0 W/m 0,0 km/h (0 Bft) 97,83 %
16.06.2022 23:14 19,2 C 17,8 C 14,4 C 73 % 1023,7 hPa 0,0 l/m 0 min 0 min 0 W/m 0,0 km/h (0 Bft) 95,74 %
16.06.2022 23:16 19,2 C 17,8 C 14,4 C 73 % 1023,7 hPa 0,0 l/m 0 min 0 min 0 W/m 0,0 km/h (0 Bft) 100,00 %
16.06.2022 23:18 19,2 C 17,8 C 14,4 C 72 % 1023,7 hPa 0,0 l/m 0 min 0 min 0 W/m 0,0 km/h (0 Bft) 100,00 %
16.06.2022 23:20 19,1 C 17,8 C 14,4 C 72 % 1023,7 hPa 0,0 l/m 0 min 0 min 0 W/m 0,0 km/h (0 Bft) 100,00 %
16.06.2022 23:22 19,1 C 17,8 C 14,4 C 72 % 1023,6 hPa 0,0 l/m 0 min 0 min 0 W/m 0,0 km/h (0 Bft) 100,00 %
16.06.2022 23:24 19,1 C 17,8 C 14,4 C 73 % 1023,6 hPa 0,0 l/m 0 min 0 min 0 W/m 0,0 km/h (0 Bft) 100,00 %
16.06.2022 23:26 19,0 C 17,2 C 14,4 C 73 % 1023,7 hPa 0,0 l/m 0 min 0 min 0 W/m 0,0 km/h (0 Bft) 97,87 %
16.06.2022 23:28 19,0 C 17,2 C 14,4 C 73 % 1023,6 hPa 0,0 l/m 0 min 0 min 0 W/m 0,0 km/h (0 Bft) 97,87 %
16.06.2022 23:30 18,9 C 17,2 C 14,4 C 73 % 1023,7 hPa 0,0 l/m 0 min 0 min 0 W/m 0,0 km/h (0 Bft) 100,00 %
16.06.2022 23:32 18,8 C 17,2 C 14,4 C 73 % 1023,8 hPa 0,0 l/m 0 min 0 min 0 W/m 0,0 km/h (0 Bft) 100,00 %
16.06.2022 23:34 18,8 C 17,2 C 13,9 C 73 % 1023,9 hPa 0,0 l/m 0 min 0 min 0 W/m 0,0 km/h (0 Bft) 100,00 %
16.06.2022 23:36 18,8 C 17,2 C 13,9 C 73 % 1023,7 hPa 0,0 l/m 0 min 0 min 0 W/m 0,0 km/h (0 Bft) 97,83 %
16.06.2022 23:38 18,7 C 17,2 C 13,9 C 74 % 1023,7 hPa 0,0 l/m 0 min 0 min 0 W/m 0,0 km/h (0 Bft) 97,87 %
16.06.2022 23:40 18,7 C 17,2 C 13,9 C 73 % 1023,7 hPa 0,0 l/m 0 min 0 min 0 W/m 0,0 km/h (0 Bft) 97,87 %
16.06.2022 23:42 18,6 C 17,2 C 13,9 C 74 % 1023,7 hPa 0,0 l/m 0 min 0 min 0 W/m 0,0 km/h (0 Bft) 97,87 %
16.06.2022 23:44 18,6 C 16,7 C 13,9 C 74 % 1023,8 hPa 0,0 l/m 0 min 0 min 0 W/m 0,0 km/h (0 Bft) 97,87 %
16.06.2022 23:46 18,5 C 16,7 C 13,9 C 74 % 1023,9 hPa 0,0 l/m 0 min 0 min 0 W/m 0,0 km/h (0 Bft) 95,12 %
16.06.2022 23:48 18,5 C 16,7 C 13,9 C 75 % 1024,0 hPa 0,0 l/m 0 min 0 min 0 W/m 0,0 km/h (0 Bft) 97,87 %
16.06.2022 23:50 18,4 C 16,7 C 13,9 C 75 % 1024,0 hPa 0,0 l/m 0 min 0 min 0 W/m 0,0 km/h (0 Bft) 97,83 %
16.06.2022 23:52 18,4 C 16,7 C 13,9 C 75 % 1024,0 hPa 0,0 l/m 0 min 0 min 0 W/m 0,0 km/h (0 Bft) 95,74 %
16.06.2022 23:54 18,3 C 16,7 C 13,9 C 75 % 1024,0 hPa 0,0 l/m 0 min 0 min 0 W/m 0,0 km/h (0 Bft) 93,62 %
16.06.2022 23:56 18,3 C 16,7 C 13,9 C 75 % 1024,0 hPa 0,0 l/m 0 min 0 min 0 W/m 0,0 km/h (0 Bft) 93,62 %
16.06.2022 23:58 18,2 C 16,7 C 13,3 C 75 % 1024,0 hPa 0,0 l/m 0 min 0 min 0 W/m 0,0 km/h (0 Bft) 97,87 %
_ Min-Zeit 06:12 04:56 04:54 17:56 01:10 - - - - 05:30 15:32
Minimum _ 15,0 C 14,4 C 11,1 C 45 % 1018,1 hPa - - - - 0,0 km/h (0 Bft) 68,09 %
_ Max-Zeit 18:14 18:12 12:50 23:48 23:00 00:00 12:07 15:28 13:44 16:36 00:00
Maximum _ 26,6 C 32,8 C 29,4 C 75 % 1024,0 hPa 0,0 l/m 3 min 2 min 962 W/m 32,2 km/h
NW (5 Bft)
100,00 %
Durchschnitt _ 20,9 C 22,0 C 18,0 C 60 % 1021,4 hPa #0,0 l/m #11:42 h #2 min. 520 W/m 9,7 km/h (2 Bft) 97,56 %
© 2022 W. Hausmann